<?xml version="1.0" encoding="UTF-8" standalone="no" ?>
<gpx xmlns="http://www.topografix.com/GPX/1/1" xmlns:xsi="http://www.w3.org/2001/XMLSchema-instance" xsi:schemaLocation="http://www.topografix.com/GPX/1/1 http://www.topografix.com/GPX/1/1/gpx.xsd" version="1.1" creator="VisuGPX - https://www.visugpx.com">
  <metadata>
    <name>2026-05-30 - Vtt en Yvelines</name>
    <desc><![CDATA[Parcours interessant qui permet de découvrir une partie de la forêt de Saint Germain puis de parcourir les zones boisées vers Orgeval. Le retour passe par la magnifique terrasse de Saint Germain. Pas de difficultés majeures pour cet itinéraire... Attention au km 21,5 on traverse une route assez passante et les conducteurs n\'ont pas une bonne visibilité de cette intersection...]]></desc>
  </metadata>
  <trk>
    <name><![CDATA[2026-05-30 - Vtt en Yvelines-24240599]]></name>
    <trkseg>
      <trkpt lat="48.94335" lon="2.12782">
        <ele>59</ele>
        <time>2026-06-01T08:07:37Z</time>
      </trkpt>
      <trkpt lat="48.94332" lon="2.12804">
        <ele>57</ele>
        <time>2026-06-01T08:07:40Z</time>
      </trkpt>
      <trkpt lat="48.94336" lon="2.12836">
        <ele>56</ele>
        <time>2026-06-01T08:07:45Z</time>
      </trkpt>
      <trkpt lat="48.94341" lon="2.12855">
        <ele>56</ele>
        <time>2026-06-01T08:07:49Z</time>
      </trkpt>
      <trkpt lat="48.94344" lon="2.12907">
        <ele>54</ele>
        <time>2026-06-01T08:07:57Z</time>
      </trkpt>
      <trkpt lat="48.94355" lon="2.12984">
        <ele>53</ele>
        <time>2026-06-01T08:08:09Z</time>
      </trkpt>
      <trkpt lat="48.94344" lon="2.12999">
        <ele>53</ele>
        <time>2026-06-01T08:08:12Z</time>
      </trkpt>
      <trkpt lat="48.94339" lon="2.13001">
        <ele>53</ele>
        <time>2026-06-01T08:08:13Z</time>
      </trkpt>
      <trkpt lat="48.94332" lon="2.13">
        <ele>53</ele>
        <time>2026-06-01T08:08:15Z</time>
      </trkpt>
      <trkpt lat="48.94317" lon="2.12992">
        <ele>54</ele>
        <time>2026-06-01T08:08:19Z</time>
      </trkpt>
      <trkpt lat="48.94312" lon="2.12995">
        <ele>54</ele>
        <time>2026-06-01T08:08:20Z</time>
      </trkpt>
      <trkpt lat="48.94281" lon="2.13091">
        <ele>53</ele>
        <time>2026-06-01T08:08:36Z</time>
      </trkpt>
      <trkpt lat="48.94273" lon="2.13106">
        <ele>53</ele>
        <time>2026-06-01T08:08:39Z</time>
      </trkpt>
      <trkpt lat="48.94275" lon="2.1311">
        <ele>53</ele>
        <time>2026-06-01T08:08:40Z</time>
      </trkpt>
      <trkpt lat="48.94281" lon="2.13099">
        <ele>53</ele>
        <time>2026-06-01T08:08:42Z</time>
      </trkpt>
      <trkpt lat="48.94314" lon="2.12997">
        <ele>54</ele>
        <time>2026-06-01T08:09:00Z</time>
      </trkpt>
      <trkpt lat="48.94319" lon="2.12996">
        <ele>53</ele>
        <time>2026-06-01T08:09:01Z</time>
      </trkpt>
      <trkpt lat="48.94338" lon="2.1301">
        <ele>53</ele>
        <time>2026-06-01T08:09:06Z</time>
      </trkpt>
      <trkpt lat="48.94344" lon="2.13012">
        <ele>53</ele>
        <time>2026-06-01T08:09:07Z</time>
      </trkpt>
      <trkpt lat="48.94351" lon="2.13013">
        <ele>53</ele>
        <time>2026-06-01T08:09:09Z</time>
      </trkpt>
      <trkpt lat="48.94355" lon="2.13009">
        <ele>53</ele>
        <time>2026-06-01T08:09:10Z</time>
      </trkpt>
      <trkpt lat="48.94352" lon="2.12948">
        <ele>54</ele>
        <time>2026-06-01T08:09:19Z</time>
      </trkpt>
      <trkpt lat="48.94337" lon="2.12812">
        <ele>57</ele>
        <time>2026-06-01T08:09:41Z</time>
      </trkpt>
      <trkpt lat="48.94342" lon="2.12783">
        <ele>59</ele>
        <time>2026-06-01T08:09:45Z</time>
      </trkpt>
      <trkpt lat="48.94342" lon="2.1275">
        <ele>60</ele>
        <time>2026-06-01T08:09:50Z</time>
      </trkpt>
      <trkpt lat="48.94355" lon="2.12731">
        <ele>61</ele>
        <time>2026-06-01T08:09:54Z</time>
      </trkpt>
      <trkpt lat="48.94368" lon="2.12717">
        <ele>62</ele>
        <time>2026-06-01T08:09:58Z</time>
      </trkpt>
      <trkpt lat="48.94381" lon="2.1269">
        <ele>63</ele>
        <time>2026-06-01T08:10:03Z</time>
      </trkpt>
      <trkpt lat="48.94392" lon="2.1266">
        <ele>64</ele>
        <time>2026-06-01T08:10:09Z</time>
      </trkpt>
      <trkpt lat="48.94417" lon="2.12624">
        <ele>66</ele>
        <time>2026-06-01T08:10:17Z</time>
      </trkpt>
      <trkpt lat="48.94448" lon="2.12554">
        <ele>65</ele>
        <time>2026-06-01T08:10:30Z</time>
      </trkpt>
      <trkpt lat="48.94457" lon="2.12524">
        <ele>64</ele>
        <time>2026-06-01T08:10:35Z</time>
      </trkpt>
      <trkpt lat="48.94481" lon="2.12478">
        <ele>61</ele>
        <time>2026-06-01T08:10:44Z</time>
      </trkpt>
      <trkpt lat="48.94502" lon="2.12446">
        <ele>60</ele>
        <time>2026-06-01T08:10:51Z</time>
      </trkpt>
      <trkpt lat="48.94519" lon="2.12431">
        <ele>60</ele>
        <time>2026-06-01T08:10:55Z</time>
      </trkpt>
      <trkpt lat="48.94571" lon="2.12371">
        <ele>59</ele>
        <time>2026-06-01T08:11:10Z</time>
      </trkpt>
      <trkpt lat="48.94599" lon="2.12344">
        <ele>59</ele>
        <time>2026-06-01T08:11:18Z</time>
      </trkpt>
      <trkpt lat="48.94609" lon="2.12329">
        <ele>59</ele>
        <time>2026-06-01T08:11:21Z</time>
      </trkpt>
      <trkpt lat="48.94614" lon="2.12312">
        <ele>59</ele>
        <time>2026-06-01T08:11:24Z</time>
      </trkpt>
      <trkpt lat="48.9462" lon="2.12255">
        <ele>61</ele>
        <time>2026-06-01T08:11:33Z</time>
      </trkpt>
      <trkpt lat="48.94621" lon="2.1209">
        <ele>63</ele>
        <time>2026-06-01T08:11:58Z</time>
      </trkpt>
      <trkpt lat="48.94618" lon="2.12059">
        <ele>63</ele>
        <time>2026-06-01T08:12:03Z</time>
      </trkpt>
      <trkpt lat="48.94613" lon="2.12034">
        <ele>64</ele>
        <time>2026-06-01T08:12:07Z</time>
      </trkpt>
      <trkpt lat="48.94593" lon="2.1199">
        <ele>63</ele>
        <time>2026-06-01T08:12:15Z</time>
      </trkpt>
      <trkpt lat="48.94562" lon="2.11897">
        <ele>65</ele>
        <time>2026-06-01T08:12:31Z</time>
      </trkpt>
      <trkpt lat="48.94556" lon="2.11867">
        <ele>65</ele>
        <time>2026-06-01T08:12:36Z</time>
      </trkpt>
      <trkpt lat="48.94554" lon="2.11839">
        <ele>65</ele>
        <time>2026-06-01T08:12:41Z</time>
      </trkpt>
      <trkpt lat="48.94563" lon="2.117">
        <ele>65</ele>
        <time>2026-06-01T08:13:02Z</time>
      </trkpt>
      <trkpt lat="48.94566" lon="2.11613">
        <ele>64</ele>
        <time>2026-06-01T08:13:15Z</time>
      </trkpt>
      <trkpt lat="48.94564" lon="2.11574">
        <ele>63</ele>
        <time>2026-06-01T08:13:21Z</time>
      </trkpt>
      <trkpt lat="48.94569" lon="2.1152">
        <ele>61</ele>
        <time>2026-06-01T08:13:30Z</time>
      </trkpt>
      <trkpt lat="48.94566" lon="2.11474">
        <ele>61</ele>
        <time>2026-06-01T08:13:37Z</time>
      </trkpt>
      <trkpt lat="48.94568" lon="2.11409">
        <ele>60</ele>
        <time>2026-06-01T08:13:47Z</time>
      </trkpt>
      <trkpt lat="48.94574" lon="2.11343">
        <ele>62</ele>
        <time>2026-06-01T08:13:57Z</time>
      </trkpt>
      <trkpt lat="48.94571" lon="2.11252">
        <ele>65</ele>
        <time>2026-06-01T08:14:11Z</time>
      </trkpt>
      <trkpt lat="48.94578" lon="2.11179">
        <ele>67</ele>
        <time>2026-06-01T08:14:22Z</time>
      </trkpt>
      <trkpt lat="48.94576" lon="2.1108">
        <ele>70</ele>
        <time>2026-06-01T08:14:37Z</time>
      </trkpt>
      <trkpt lat="48.94581" lon="2.11055">
        <ele>70</ele>
        <time>2026-06-01T08:14:41Z</time>
      </trkpt>
      <trkpt lat="48.9458" lon="2.11035">
        <ele>70</ele>
        <time>2026-06-01T08:14:45Z</time>
      </trkpt>
      <trkpt lat="48.94583" lon="2.11017">
        <ele>70</ele>
        <time>2026-06-01T08:14:47Z</time>
      </trkpt>
      <trkpt lat="48.9458" lon="2.10958">
        <ele>69</ele>
        <time>2026-06-01T08:14:56Z</time>
      </trkpt>
      <trkpt lat="48.94582" lon="2.10872">
        <ele>68</ele>
        <time>2026-06-01T08:15:10Z</time>
      </trkpt>
      <trkpt lat="48.94594" lon="2.10779">
        <ele>64</ele>
        <time>2026-06-01T08:15:24Z</time>
      </trkpt>
      <trkpt lat="48.94592" lon="2.10756">
        <ele>64</ele>
        <time>2026-06-01T08:15:28Z</time>
      </trkpt>
      <trkpt lat="48.94597" lon="2.10708">
        <ele>63</ele>
        <time>2026-06-01T08:15:35Z</time>
      </trkpt>
      <trkpt lat="48.94593" lon="2.10688">
        <ele>63</ele>
        <time>2026-06-01T08:15:38Z</time>
      </trkpt>
      <trkpt lat="48.94487" lon="2.10485">
        <ele>69</ele>
        <time>2026-06-01T08:16:18Z</time>
      </trkpt>
      <trkpt lat="48.94439" lon="2.10405">
        <ele>71</ele>
        <time>2026-06-01T08:16:35Z</time>
      </trkpt>
      <trkpt lat="48.94177" lon="2.10002">
        <ele>69</ele>
        <time>2026-06-01T08:18:02Z</time>
      </trkpt>
      <trkpt lat="48.94069" lon="2.09838">
        <ele>66</ele>
        <time>2026-06-01T08:18:37Z</time>
      </trkpt>
      <trkpt lat="48.94036" lon="2.09792">
        <ele>66</ele>
        <time>2026-06-01T08:18:48Z</time>
      </trkpt>
      <trkpt lat="48.93997" lon="2.09731">
        <ele>66</ele>
        <time>2026-06-01T08:19:01Z</time>
      </trkpt>
      <trkpt lat="48.93987" lon="2.09711">
        <ele>66</ele>
        <time>2026-06-01T08:19:05Z</time>
      </trkpt>
      <trkpt lat="48.93972" lon="2.09694">
        <ele>66</ele>
        <time>2026-06-01T08:19:09Z</time>
      </trkpt>
      <trkpt lat="48.93958" lon="2.09649">
        <ele>66</ele>
        <time>2026-06-01T08:19:17Z</time>
      </trkpt>
      <trkpt lat="48.93953" lon="2.09602">
        <ele>65</ele>
        <time>2026-06-01T08:19:24Z</time>
      </trkpt>
      <trkpt lat="48.93944" lon="2.09579">
        <ele>65</ele>
        <time>2026-06-01T08:19:28Z</time>
      </trkpt>
      <trkpt lat="48.93937" lon="2.09572">
        <ele>65</ele>
        <time>2026-06-01T08:19:30Z</time>
      </trkpt>
      <trkpt lat="48.93929" lon="2.09569">
        <ele>65</ele>
        <time>2026-06-01T08:19:32Z</time>
      </trkpt>
      <trkpt lat="48.939" lon="2.09571">
        <ele>66</ele>
        <time>2026-06-01T08:19:39Z</time>
      </trkpt>
      <trkpt lat="48.9389" lon="2.09565">
        <ele>66</ele>
        <time>2026-06-01T08:19:41Z</time>
      </trkpt>
      <trkpt lat="48.93882" lon="2.09547">
        <ele>66</ele>
        <time>2026-06-01T08:19:45Z</time>
      </trkpt>
      <trkpt lat="48.9385" lon="2.095">
        <ele>67</ele>
        <time>2026-06-01T08:19:55Z</time>
      </trkpt>
      <trkpt lat="48.93783" lon="2.09391">
        <ele>67</ele>
        <time>2026-06-01T08:20:18Z</time>
      </trkpt>
      <trkpt lat="48.9375" lon="2.09348">
        <ele>68</ele>
        <time>2026-06-01T08:20:28Z</time>
      </trkpt>
      <trkpt lat="48.93739" lon="2.09326">
        <ele>68</ele>
        <time>2026-06-01T08:20:32Z</time>
      </trkpt>
      <trkpt lat="48.93715" lon="2.09293">
        <ele>68</ele>
        <time>2026-06-01T08:20:40Z</time>
      </trkpt>
      <trkpt lat="48.93582" lon="2.0908">
        <ele>71</ele>
        <time>2026-06-01T08:21:25Z</time>
      </trkpt>
      <trkpt lat="48.93489" lon="2.08941">
        <ele>73</ele>
        <time>2026-06-01T08:21:55Z</time>
      </trkpt>
      <trkpt lat="48.93412" lon="2.08817">
        <ele>77</ele>
        <time>2026-06-01T08:22:22Z</time>
      </trkpt>
      <trkpt lat="48.93385" lon="2.08778">
        <ele>77</ele>
        <time>2026-06-01T08:22:30Z</time>
      </trkpt>
      <trkpt lat="48.93364" lon="2.08741">
        <ele>77</ele>
        <time>2026-06-01T08:22:38Z</time>
      </trkpt>
      <trkpt lat="48.93298" lon="2.08643">
        <ele>74</ele>
        <time>2026-06-01T08:22:59Z</time>
      </trkpt>
      <trkpt lat="48.93194" lon="2.08479">
        <ele>73</ele>
        <time>2026-06-01T08:23:34Z</time>
      </trkpt>
      <trkpt lat="48.93002" lon="2.08186">
        <ele>70</ele>
        <time>2026-06-01T08:24:38Z</time>
      </trkpt>
      <trkpt lat="48.92934" lon="2.08072">
        <ele>75</ele>
        <time>2026-06-01T08:25:01Z</time>
      </trkpt>
      <trkpt lat="48.92912" lon="2.08044">
        <ele>75</ele>
        <time>2026-06-01T08:25:08Z</time>
      </trkpt>
      <trkpt lat="48.92902" lon="2.08019">
        <ele>76</ele>
        <time>2026-06-01T08:25:13Z</time>
      </trkpt>
      <trkpt lat="48.92895" lon="2.08012">
        <ele>76</ele>
        <time>2026-06-01T08:25:15Z</time>
      </trkpt>
      <trkpt lat="48.92887" lon="2.0801">
        <ele>76</ele>
        <time>2026-06-01T08:25:16Z</time>
      </trkpt>
      <trkpt lat="48.92883" lon="2.07999">
        <ele>76</ele>
        <time>2026-06-01T08:25:18Z</time>
      </trkpt>
      <trkpt lat="48.9287" lon="2.07978">
        <ele>76</ele>
        <time>2026-06-01T08:25:23Z</time>
      </trkpt>
      <trkpt lat="48.92814" lon="2.07898">
        <ele>79</ele>
        <time>2026-06-01T08:25:41Z</time>
      </trkpt>
      <trkpt lat="48.92731" lon="2.07768">
        <ele>81</ele>
        <time>2026-06-01T08:26:09Z</time>
      </trkpt>
      <trkpt lat="48.92698" lon="2.07712">
        <ele>80</ele>
        <time>2026-06-01T08:26:20Z</time>
      </trkpt>
      <trkpt lat="48.92662" lon="2.07669">
        <ele>79</ele>
        <time>2026-06-01T08:26:31Z</time>
      </trkpt>
      <trkpt lat="48.92602" lon="2.0758">
        <ele>79</ele>
        <time>2026-06-01T08:26:50Z</time>
      </trkpt>
      <trkpt lat="48.92582" lon="2.07545">
        <ele>79</ele>
        <time>2026-06-01T08:26:57Z</time>
      </trkpt>
      <trkpt lat="48.92568" lon="2.07528">
        <ele>80</ele>
        <time>2026-06-01T08:27:02Z</time>
      </trkpt>
      <trkpt lat="48.92325" lon="2.07153">
        <ele>79</ele>
        <time>2026-06-01T08:28:22Z</time>
      </trkpt>
      <trkpt lat="48.92319" lon="2.07135">
        <ele>79</ele>
        <time>2026-06-01T08:28:26Z</time>
      </trkpt>
      <trkpt lat="48.92311" lon="2.06996">
        <ele>81</ele>
        <time>2026-06-01T08:28:47Z</time>
      </trkpt>
      <trkpt lat="48.92297" lon="2.06821">
        <ele>79</ele>
        <time>2026-06-01T08:29:14Z</time>
      </trkpt>
      <trkpt lat="48.92298" lon="2.06788">
        <ele>79</ele>
        <time>2026-06-01T08:29:19Z</time>
      </trkpt>
      <trkpt lat="48.92293" lon="2.06751">
        <ele>79</ele>
        <time>2026-06-01T08:29:25Z</time>
      </trkpt>
      <trkpt lat="48.92279" lon="2.06562">
        <ele>72</ele>
        <time>2026-06-01T08:29:54Z</time>
      </trkpt>
      <trkpt lat="48.92268" lon="2.0646">
        <ele>73</ele>
        <time>2026-06-01T08:30:10Z</time>
      </trkpt>
      <trkpt lat="48.92262" lon="2.06351">
        <ele>73</ele>
        <time>2026-06-01T08:30:27Z</time>
      </trkpt>
      <trkpt lat="48.92257" lon="2.06301">
        <ele>72</ele>
        <time>2026-06-01T08:30:35Z</time>
      </trkpt>
      <trkpt lat="48.92256" lon="2.06256">
        <ele>72</ele>
        <time>2026-06-01T08:30:41Z</time>
      </trkpt>
      <trkpt lat="48.9226" lon="2.06239">
        <ele>72</ele>
        <time>2026-06-01T08:30:44Z</time>
      </trkpt>
      <trkpt lat="48.92279" lon="2.06188">
        <ele>71</ele>
        <time>2026-06-01T08:30:53Z</time>
      </trkpt>
      <trkpt lat="48.92284" lon="2.06162">
        <ele>71</ele>
        <time>2026-06-01T08:30:57Z</time>
      </trkpt>
      <trkpt lat="48.92289" lon="2.06089">
        <ele>69</ele>
        <time>2026-06-01T08:31:09Z</time>
      </trkpt>
      <trkpt lat="48.9229" lon="2.06009">
        <ele>66</ele>
        <time>2026-06-01T08:31:21Z</time>
      </trkpt>
      <trkpt lat="48.92295" lon="2.05947">
        <ele>64</ele>
        <time>2026-06-01T08:31:30Z</time>
      </trkpt>
      <trkpt lat="48.92294" lon="2.05928">
        <ele>63</ele>
        <time>2026-06-01T08:31:33Z</time>
      </trkpt>
      <trkpt lat="48.92306" lon="2.05846">
        <ele>65</ele>
        <time>2026-06-01T08:31:46Z</time>
      </trkpt>
      <trkpt lat="48.92312" lon="2.05735">
        <ele>65</ele>
        <time>2026-06-01T08:32:03Z</time>
      </trkpt>
      <trkpt lat="48.9233" lon="2.0567">
        <ele>63</ele>
        <time>2026-06-01T08:32:14Z</time>
      </trkpt>
      <trkpt lat="48.92339" lon="2.05617">
        <ele>65</ele>
        <time>2026-06-01T08:32:23Z</time>
      </trkpt>
      <trkpt lat="48.92342" lon="2.05571">
        <ele>66</ele>
        <time>2026-06-01T08:32:30Z</time>
      </trkpt>
      <trkpt lat="48.92351" lon="2.05525">
        <ele>66</ele>
        <time>2026-06-01T08:32:37Z</time>
      </trkpt>
      <trkpt lat="48.92365" lon="2.0548">
        <ele>66</ele>
        <time>2026-06-01T08:32:45Z</time>
      </trkpt>
      <trkpt lat="48.92367" lon="2.05462">
        <ele>65</ele>
        <time>2026-06-01T08:32:47Z</time>
      </trkpt>
      <trkpt lat="48.92361" lon="2.05449">
        <ele>66</ele>
        <time>2026-06-01T08:32:50Z</time>
      </trkpt>
      <trkpt lat="48.92371" lon="2.05406">
        <ele>65</ele>
        <time>2026-06-01T08:32:57Z</time>
      </trkpt>
      <trkpt lat="48.92369" lon="2.05386">
        <ele>65</ele>
        <time>2026-06-01T08:33:00Z</time>
      </trkpt>
      <trkpt lat="48.92394" lon="2.05356">
        <ele>63</ele>
        <time>2026-06-01T08:33:07Z</time>
      </trkpt>
      <trkpt lat="48.92404" lon="2.05337">
        <ele>62</ele>
        <time>2026-06-01T08:33:11Z</time>
      </trkpt>
      <trkpt lat="48.92411" lon="2.05318">
        <ele>62</ele>
        <time>2026-06-01T08:33:15Z</time>
      </trkpt>
      <trkpt lat="48.9242" lon="2.05278">
        <ele>62</ele>
        <time>2026-06-01T08:33:21Z</time>
      </trkpt>
      <trkpt lat="48.92454" lon="2.05206">
        <ele>59</ele>
        <time>2026-06-01T08:33:35Z</time>
      </trkpt>
      <trkpt lat="48.92502" lon="2.05095">
        <ele>51</ele>
        <time>2026-06-01T08:33:55Z</time>
      </trkpt>
      <trkpt lat="48.92523" lon="2.05053">
        <ele>49</ele>
        <time>2026-06-01T08:34:03Z</time>
      </trkpt>
      <trkpt lat="48.92572" lon="2.04935">
        <ele>44</ele>
        <time>2026-06-01T08:34:25Z</time>
      </trkpt>
      <trkpt lat="48.92599" lon="2.04881">
        <ele>42</ele>
        <time>2026-06-01T08:34:35Z</time>
      </trkpt>
      <trkpt lat="48.92613" lon="2.04842">
        <ele>41</ele>
        <time>2026-06-01T08:34:42Z</time>
      </trkpt>
      <trkpt lat="48.92611" lon="2.04835">
        <ele>41</ele>
        <time>2026-06-01T08:34:43Z</time>
      </trkpt>
      <trkpt lat="48.92595" lon="2.04814">
        <ele>41</ele>
        <time>2026-06-01T08:34:48Z</time>
      </trkpt>
      <trkpt lat="48.92547" lon="2.04766">
        <ele>44</ele>
        <time>2026-06-01T08:35:01Z</time>
      </trkpt>
      <trkpt lat="48.92536" lon="2.04745">
        <ele>45</ele>
        <time>2026-06-01T08:35:05Z</time>
      </trkpt>
      <trkpt lat="48.92533" lon="2.04721">
        <ele>45</ele>
        <time>2026-06-01T08:35:09Z</time>
      </trkpt>
      <trkpt lat="48.92534" lon="2.0466">
        <ele>43</ele>
        <time>2026-06-01T08:35:19Z</time>
      </trkpt>
      <trkpt lat="48.92529" lon="2.04525">
        <ele>46</ele>
        <time>2026-06-01T08:35:39Z</time>
      </trkpt>
      <trkpt lat="48.92524" lon="2.04464">
        <ele>45</ele>
        <time>2026-06-01T08:35:49Z</time>
      </trkpt>
      <trkpt lat="48.92519" lon="2.04458">
        <ele>46</ele>
        <time>2026-06-01T08:35:50Z</time>
      </trkpt>
      <trkpt lat="48.92513" lon="2.04459">
        <ele>46</ele>
        <time>2026-06-01T08:35:52Z</time>
      </trkpt>
      <trkpt lat="48.92476" lon="2.04485">
        <ele>51</ele>
        <time>2026-06-01T08:36:01Z</time>
      </trkpt>
      <trkpt lat="48.92416" lon="2.04535">
        <ele>57</ele>
        <time>2026-06-01T08:36:17Z</time>
      </trkpt>
      <trkpt lat="48.92402" lon="2.04539">
        <ele>59</ele>
        <time>2026-06-01T08:36:20Z</time>
      </trkpt>
      <trkpt lat="48.9239" lon="2.04538">
        <ele>61</ele>
        <time>2026-06-01T08:36:23Z</time>
      </trkpt>
      <trkpt lat="48.92368" lon="2.04523">
        <ele>63</ele>
        <time>2026-06-01T08:36:29Z</time>
      </trkpt>
      <trkpt lat="48.92332" lon="2.0449">
        <ele>67</ele>
        <time>2026-06-01T08:36:39Z</time>
      </trkpt>
      <trkpt lat="48.9232" lon="2.04475">
        <ele>68</ele>
        <time>2026-06-01T08:36:42Z</time>
      </trkpt>
      <trkpt lat="48.92305" lon="2.04444">
        <ele>69</ele>
        <time>2026-06-01T08:36:48Z</time>
      </trkpt>
      <trkpt lat="48.92278" lon="2.04365">
        <ele>72</ele>
        <time>2026-06-01T08:37:02Z</time>
      </trkpt>
      <trkpt lat="48.92262" lon="2.04374">
        <ele>74</ele>
        <time>2026-06-01T08:37:06Z</time>
      </trkpt>
      <trkpt lat="48.92256" lon="2.04368">
        <ele>75</ele>
        <time>2026-06-01T08:37:08Z</time>
      </trkpt>
      <trkpt lat="48.92261" lon="2.04386">
        <ele>75</ele>
        <time>2026-06-01T08:37:11Z</time>
      </trkpt>
      <trkpt lat="48.92258" lon="2.04395">
        <ele>75</ele>
        <time>2026-06-01T08:37:12Z</time>
      </trkpt>
      <trkpt lat="48.92191" lon="2.04493">
        <ele>80</ele>
        <time>2026-06-01T08:37:34Z</time>
      </trkpt>
      <trkpt lat="48.92124" lon="2.04603">
        <ele>79</ele>
        <time>2026-06-01T08:37:57Z</time>
      </trkpt>
      <trkpt lat="48.92119" lon="2.04605">
        <ele>79</ele>
        <time>2026-06-01T08:37:58Z</time>
      </trkpt>
      <trkpt lat="48.92112" lon="2.04599">
        <ele>80</ele>
        <time>2026-06-01T08:38:00Z</time>
      </trkpt>
      <trkpt lat="48.92083" lon="2.04546">
        <ele>82</ele>
        <time>2026-06-01T08:38:10Z</time>
      </trkpt>
      <trkpt lat="48.92052" lon="2.0448">
        <ele>83</ele>
        <time>2026-06-01T08:38:23Z</time>
      </trkpt>
      <trkpt lat="48.92038" lon="2.0446">
        <ele>83</ele>
        <time>2026-06-01T08:38:27Z</time>
      </trkpt>
      <trkpt lat="48.92032" lon="2.04442">
        <ele>84</ele>
        <time>2026-06-01T08:38:30Z</time>
      </trkpt>
      <trkpt lat="48.92012" lon="2.04399">
        <ele>84</ele>
        <time>2026-06-01T08:38:39Z</time>
      </trkpt>
      <trkpt lat="48.91973" lon="2.04326">
        <ele>82</ele>
        <time>2026-06-01T08:38:53Z</time>
      </trkpt>
      <trkpt lat="48.91954" lon="2.04283">
        <ele>79</ele>
        <time>2026-06-01T08:39:01Z</time>
      </trkpt>
      <trkpt lat="48.91948" lon="2.04272">
        <ele>79</ele>
        <time>2026-06-01T08:39:03Z</time>
      </trkpt>
      <trkpt lat="48.91939" lon="2.04263">
        <ele>78</ele>
        <time>2026-06-01T08:39:06Z</time>
      </trkpt>
      <trkpt lat="48.91937" lon="2.04262">
        <ele>78</ele>
        <time>2026-06-01T08:39:06Z</time>
      </trkpt>
      <trkpt lat="48.91932" lon="2.04265">
        <ele>78</ele>
        <time>2026-06-01T08:39:07Z</time>
      </trkpt>
      <trkpt lat="48.91873" lon="2.04356">
        <ele>79</ele>
        <time>2026-06-01T08:39:27Z</time>
      </trkpt>
      <trkpt lat="48.91866" lon="2.04361">
        <ele>79</ele>
        <time>2026-06-01T08:39:29Z</time>
      </trkpt>
      <trkpt lat="48.91863" lon="2.0436">
        <ele>79</ele>
        <time>2026-06-01T08:39:30Z</time>
      </trkpt>
      <trkpt lat="48.91821" lon="2.04282">
        <ele>77</ele>
        <time>2026-06-01T08:39:45Z</time>
      </trkpt>
      <trkpt lat="48.91801" lon="2.04238">
        <ele>75</ele>
        <time>2026-06-01T08:39:53Z</time>
      </trkpt>
      <trkpt lat="48.91784" lon="2.04207">
        <ele>74</ele>
        <time>2026-06-01T08:39:59Z</time>
      </trkpt>
      <trkpt lat="48.91779" lon="2.0419">
        <ele>74</ele>
        <time>2026-06-01T08:40:02Z</time>
      </trkpt>
      <trkpt lat="48.91725" lon="2.04082">
        <ele>74</ele>
        <time>2026-06-01T08:40:23Z</time>
      </trkpt>
      <trkpt lat="48.91722" lon="2.04081">
        <ele>74</ele>
        <time>2026-06-01T08:40:24Z</time>
      </trkpt>
      <trkpt lat="48.9171" lon="2.04085">
        <ele>74</ele>
        <time>2026-06-01T08:40:27Z</time>
      </trkpt>
      <trkpt lat="48.91704" lon="2.04081">
        <ele>73</ele>
        <time>2026-06-01T08:40:28Z</time>
      </trkpt>
      <trkpt lat="48.91704" lon="2.04055">
        <ele>73</ele>
        <time>2026-06-01T08:40:32Z</time>
      </trkpt>
      <trkpt lat="48.91693" lon="2.03994">
        <ele>72</ele>
        <time>2026-06-01T08:40:42Z</time>
      </trkpt>
      <trkpt lat="48.91689" lon="2.03986">
        <ele>72</ele>
        <time>2026-06-01T08:40:43Z</time>
      </trkpt>
      <trkpt lat="48.91677" lon="2.03976">
        <ele>71</ele>
        <time>2026-06-01T08:40:47Z</time>
      </trkpt>
      <trkpt lat="48.91671" lon="2.03973">
        <ele>71</ele>
        <time>2026-06-01T08:40:48Z</time>
      </trkpt>
      <trkpt lat="48.91657" lon="2.03975">
        <ele>71</ele>
        <time>2026-06-01T08:40:51Z</time>
      </trkpt>
      <trkpt lat="48.9152" lon="2.04008">
        <ele>67</ele>
        <time>2026-06-01T08:41:24Z</time>
      </trkpt>
      <trkpt lat="48.91494" lon="2.04011">
        <ele>67</ele>
        <time>2026-06-01T08:41:30Z</time>
      </trkpt>
      <trkpt lat="48.9146" lon="2.04001">
        <ele>66</ele>
        <time>2026-06-01T08:41:38Z</time>
      </trkpt>
      <trkpt lat="48.9141" lon="2.03996">
        <ele>65</ele>
        <time>2026-06-01T08:41:50Z</time>
      </trkpt>
      <trkpt lat="48.91384" lon="2.03991">
        <ele>64</ele>
        <time>2026-06-01T08:41:56Z</time>
      </trkpt>
      <trkpt lat="48.91257" lon="2.03953">
        <ele>63</ele>
        <time>2026-06-01T08:42:26Z</time>
      </trkpt>
      <trkpt lat="48.9115" lon="2.0394">
        <ele>65</ele>
        <time>2026-06-01T08:42:51Z</time>
      </trkpt>
      <trkpt lat="48.91143" lon="2.03934">
        <ele>65</ele>
        <time>2026-06-01T08:42:53Z</time>
      </trkpt>
      <trkpt lat="48.9114" lon="2.03925">
        <ele>65</ele>
        <time>2026-06-01T08:42:55Z</time>
      </trkpt>
      <trkpt lat="48.91154" lon="2.03861">
        <ele>65</ele>
        <time>2026-06-01T08:43:05Z</time>
      </trkpt>
      <trkpt lat="48.91159" lon="2.03849">
        <ele>65</ele>
        <time>2026-06-01T08:43:07Z</time>
      </trkpt>
      <trkpt lat="48.91177" lon="2.03821">
        <ele>65</ele>
        <time>2026-06-01T08:43:13Z</time>
      </trkpt>
      <trkpt lat="48.91176" lon="2.03799">
        <ele>65</ele>
        <time>2026-06-01T08:43:16Z</time>
      </trkpt>
      <trkpt lat="48.91178" lon="2.03785">
        <ele>65</ele>
        <time>2026-06-01T08:43:19Z</time>
      </trkpt>
      <trkpt lat="48.91269" lon="2.03408">
        <ele>66</ele>
        <time>2026-06-01T08:44:20Z</time>
      </trkpt>
      <trkpt lat="48.91281" lon="2.03361">
        <ele>67</ele>
        <time>2026-06-01T08:44:28Z</time>
      </trkpt>
      <trkpt lat="48.91292" lon="2.03343">
        <ele>67</ele>
        <time>2026-06-01T08:44:32Z</time>
      </trkpt>
      <trkpt lat="48.91296" lon="2.03331">
        <ele>67</ele>
        <time>2026-06-01T08:44:34Z</time>
      </trkpt>
      <trkpt lat="48.91297" lon="2.03316">
        <ele>68</ele>
        <time>2026-06-01T08:44:36Z</time>
      </trkpt>
      <trkpt lat="48.9128" lon="2.03293">
        <ele>68</ele>
        <time>2026-06-01T08:44:42Z</time>
      </trkpt>
      <trkpt lat="48.91252" lon="2.03301">
        <ele>68</ele>
        <time>2026-06-01T08:44:48Z</time>
      </trkpt>
      <trkpt lat="48.91172" lon="2.03263">
        <ele>72</ele>
        <time>2026-06-01T08:45:08Z</time>
      </trkpt>
      <trkpt lat="48.91164" lon="2.03256">
        <ele>72</ele>
        <time>2026-06-01T08:45:10Z</time>
      </trkpt>
      <trkpt lat="48.91157" lon="2.03244">
        <ele>72</ele>
        <time>2026-06-01T08:45:12Z</time>
      </trkpt>
      <trkpt lat="48.91153" lon="2.03223">
        <ele>72</ele>
        <time>2026-06-01T08:45:16Z</time>
      </trkpt>
      <trkpt lat="48.91153" lon="2.032">
        <ele>72</ele>
        <time>2026-06-01T08:45:19Z</time>
      </trkpt>
      <trkpt lat="48.91149" lon="2.03193">
        <ele>73</ele>
        <time>2026-06-01T08:45:21Z</time>
      </trkpt>
      <trkpt lat="48.91139" lon="2.03186">
        <ele>73</ele>
        <time>2026-06-01T08:45:23Z</time>
      </trkpt>
      <trkpt lat="48.91174" lon="2.03035">
        <ele>71</ele>
        <time>2026-06-01T08:45:48Z</time>
      </trkpt>
      <trkpt lat="48.91199" lon="2.0294">
        <ele>71</ele>
        <time>2026-06-01T08:46:04Z</time>
      </trkpt>
      <trkpt lat="48.91248" lon="2.0272">
        <ele>69</ele>
        <time>2026-06-01T08:46:39Z</time>
      </trkpt>
      <trkpt lat="48.91286" lon="2.02536">
        <ele>69</ele>
        <time>2026-06-01T08:47:09Z</time>
      </trkpt>
      <trkpt lat="48.91351" lon="2.02266">
        <ele>70</ele>
        <time>2026-06-01T08:47:53Z</time>
      </trkpt>
      <trkpt lat="48.91352" lon="2.02251">
        <ele>71</ele>
        <time>2026-06-01T08:47:55Z</time>
      </trkpt>
      <trkpt lat="48.91348" lon="2.02202">
        <ele>70</ele>
        <time>2026-06-01T08:48:03Z</time>
      </trkpt>
      <trkpt lat="48.91359" lon="2.02162">
        <ele>69</ele>
        <time>2026-06-01T08:48:09Z</time>
      </trkpt>
      <trkpt lat="48.91357" lon="2.02158">
        <ele>69</ele>
        <time>2026-06-01T08:48:10Z</time>
      </trkpt>
      <trkpt lat="48.91346" lon="2.02155">
        <ele>69</ele>
        <time>2026-06-01T08:48:13Z</time>
      </trkpt>
      <trkpt lat="48.91338" lon="2.02149">
        <ele>70</ele>
        <time>2026-06-01T08:48:15Z</time>
      </trkpt>
      <trkpt lat="48.91298" lon="2.02111">
        <ele>70</ele>
        <time>2026-06-01T08:48:26Z</time>
      </trkpt>
      <trkpt lat="48.91279" lon="2.02102">
        <ele>71</ele>
        <time>2026-06-01T08:48:31Z</time>
      </trkpt>
      <trkpt lat="48.91244" lon="2.02077">
        <ele>71</ele>
        <time>2026-06-01T08:48:40Z</time>
      </trkpt>
      <trkpt lat="48.91081" lon="2.01948">
        <ele>82</ele>
        <time>2026-06-01T08:49:23Z</time>
      </trkpt>
      <trkpt lat="48.91022" lon="2.01904">
        <ele>87</ele>
        <time>2026-06-01T08:49:38Z</time>
      </trkpt>
      <trkpt lat="48.90983" lon="2.01862">
        <ele>90</ele>
        <time>2026-06-01T08:49:49Z</time>
      </trkpt>
      <trkpt lat="48.90956" lon="2.0185">
        <ele>92</ele>
        <time>2026-06-01T08:49:56Z</time>
      </trkpt>
      <trkpt lat="48.9093" lon="2.01831">
        <ele>94</ele>
        <time>2026-06-01T08:50:02Z</time>
      </trkpt>
      <trkpt lat="48.90903" lon="2.01805">
        <ele>96</ele>
        <time>2026-06-01T08:50:10Z</time>
      </trkpt>
      <trkpt lat="48.90876" lon="2.01784">
        <ele>98</ele>
        <time>2026-06-01T08:50:17Z</time>
      </trkpt>
      <trkpt lat="48.90869" lon="2.01766">
        <ele>99</ele>
        <time>2026-06-01T08:50:20Z</time>
      </trkpt>
      <trkpt lat="48.90863" lon="2.01758">
        <ele>99</ele>
        <time>2026-06-01T08:50:22Z</time>
      </trkpt>
      <trkpt lat="48.90856" lon="2.01755">
        <ele>100</ele>
        <time>2026-06-01T08:50:24Z</time>
      </trkpt>
      <trkpt lat="48.9084" lon="2.01755">
        <ele>100</ele>
        <time>2026-06-01T08:50:27Z</time>
      </trkpt>
      <trkpt lat="48.90826" lon="2.01747">
        <ele>101</ele>
        <time>2026-06-01T08:50:31Z</time>
      </trkpt>
      <trkpt lat="48.90755" lon="2.01685">
        <ele>109</ele>
        <time>2026-06-01T08:50:50Z</time>
      </trkpt>
      <trkpt lat="48.9074" lon="2.01668">
        <ele>112</ele>
        <time>2026-06-01T08:50:54Z</time>
      </trkpt>
      <trkpt lat="48.90734" lon="2.01656">
        <ele>114</ele>
        <time>2026-06-01T08:50:57Z</time>
      </trkpt>
      <trkpt lat="48.90734" lon="2.01652">
        <ele>114</ele>
        <time>2026-06-01T08:50:57Z</time>
      </trkpt>
      <trkpt lat="48.90754" lon="2.01624">
        <ele>115</ele>
        <time>2026-06-01T08:51:04Z</time>
      </trkpt>
      <trkpt lat="48.9079" lon="2.01557">
        <ele>114</ele>
        <time>2026-06-01T08:51:17Z</time>
      </trkpt>
      <trkpt lat="48.90847" lon="2.01435">
        <ele>106</ele>
        <time>2026-06-01T08:51:40Z</time>
      </trkpt>
      <trkpt lat="48.90895" lon="2.01257">
        <ele>97</ele>
        <time>2026-06-01T08:52:09Z</time>
      </trkpt>
      <trkpt lat="48.90964" lon="2.01074">
        <ele>97</ele>
        <time>2026-06-01T08:52:42Z</time>
      </trkpt>
      <trkpt lat="48.9101" lon="2.00926">
        <ele>102</ele>
        <time>2026-06-01T08:53:07Z</time>
      </trkpt>
      <trkpt lat="48.91021" lon="2.00882">
        <ele>105</ele>
        <time>2026-06-01T08:53:14Z</time>
      </trkpt>
      <trkpt lat="48.91028" lon="2.00827">
        <ele>107</ele>
        <time>2026-06-01T08:53:23Z</time>
      </trkpt>
      <trkpt lat="48.91043" lon="2.00799">
        <ele>109</ele>
        <time>2026-06-01T08:53:28Z</time>
      </trkpt>
      <trkpt lat="48.91088" lon="2.0073">
        <ele>112</ele>
        <time>2026-06-01T08:53:43Z</time>
      </trkpt>
      <trkpt lat="48.91094" lon="2.00716">
        <ele>112</ele>
        <time>2026-06-01T08:53:46Z</time>
      </trkpt>
      <trkpt lat="48.91094" lon="2.00698">
        <ele>113</ele>
        <time>2026-06-01T08:53:49Z</time>
      </trkpt>
      <trkpt lat="48.91088" lon="2.00683">
        <ele>113</ele>
        <time>2026-06-01T08:53:51Z</time>
      </trkpt>
      <trkpt lat="48.91062" lon="2.00638">
        <ele>116</ele>
        <time>2026-06-01T08:54:00Z</time>
      </trkpt>
      <trkpt lat="48.91057" lon="2.00619">
        <ele>117</ele>
        <time>2026-06-01T08:54:04Z</time>
      </trkpt>
      <trkpt lat="48.91055" lon="2.00606">
        <ele>118</ele>
        <time>2026-06-01T08:54:06Z</time>
      </trkpt>
      <trkpt lat="48.91053" lon="2.00508">
        <ele>123</ele>
        <time>2026-06-01T08:54:21Z</time>
      </trkpt>
      <trkpt lat="48.91048" lon="2.00504">
        <ele>124</ele>
        <time>2026-06-01T08:54:22Z</time>
      </trkpt>
      <trkpt lat="48.91027" lon="2.00507">
        <ele>126</ele>
        <time>2026-06-01T08:54:27Z</time>
      </trkpt>
      <trkpt lat="48.91008" lon="2.00504">
        <ele>128</ele>
        <time>2026-06-01T08:54:31Z</time>
      </trkpt>
      <trkpt lat="48.90998" lon="2.005">
        <ele>129</ele>
        <time>2026-06-01T08:54:34Z</time>
      </trkpt>
      <trkpt lat="48.90985" lon="2.00493">
        <ele>129</ele>
        <time>2026-06-01T08:54:37Z</time>
      </trkpt>
      <trkpt lat="48.90976" lon="2.00485">
        <ele>129</ele>
        <time>2026-06-01T08:54:39Z</time>
      </trkpt>
      <trkpt lat="48.90958" lon="2.00461">
        <ele>131</ele>
        <time>2026-06-01T08:54:45Z</time>
      </trkpt>
      <trkpt lat="48.90929" lon="2.00418">
        <ele>133</ele>
        <time>2026-06-01T08:54:54Z</time>
      </trkpt>
      <trkpt lat="48.90898" lon="2.00362">
        <ele>136</ele>
        <time>2026-06-01T08:55:06Z</time>
      </trkpt>
      <trkpt lat="48.90873" lon="2.00274">
        <ele>142</ele>
        <time>2026-06-01T08:55:20Z</time>
      </trkpt>
      <trkpt lat="48.90862" lon="2.00202">
        <ele>152</ele>
        <time>2026-06-01T08:55:32Z</time>
      </trkpt>
      <trkpt lat="48.90853" lon="2.00177">
        <ele>156</ele>
        <time>2026-06-01T08:55:36Z</time>
      </trkpt>
      <trkpt lat="48.90825" lon="2.00168">
        <ele>159</ele>
        <time>2026-06-01T08:55:43Z</time>
      </trkpt>
      <trkpt lat="48.90811" lon="2.0016">
        <ele>161</ele>
        <time>2026-06-01T08:55:46Z</time>
      </trkpt>
      <trkpt lat="48.90795" lon="2.00145">
        <ele>162</ele>
        <time>2026-06-01T08:55:51Z</time>
      </trkpt>
      <trkpt lat="48.90785" lon="2.00126">
        <ele>163</ele>
        <time>2026-06-01T08:55:54Z</time>
      </trkpt>
      <trkpt lat="48.90754" lon="2.00043">
        <ele>165</ele>
        <time>2026-06-01T08:56:09Z</time>
      </trkpt>
      <trkpt lat="48.90706" lon="1.99925">
        <ele>167</ele>
        <time>2026-06-01T08:56:30Z</time>
      </trkpt>
      <trkpt lat="48.90692" lon="1.99883">
        <ele>168</ele>
        <time>2026-06-01T08:56:38Z</time>
      </trkpt>
      <trkpt lat="48.90685" lon="1.99871">
        <ele>168</ele>
        <time>2026-06-01T08:56:40Z</time>
      </trkpt>
      <trkpt lat="48.90669" lon="1.99822">
        <ele>169</ele>
        <time>2026-06-01T08:56:49Z</time>
      </trkpt>
      <trkpt lat="48.90655" lon="1.99791">
        <ele>169</ele>
        <time>2026-06-01T08:56:54Z</time>
      </trkpt>
      <trkpt lat="48.90599" lon="1.99637">
        <ele>169</ele>
        <time>2026-06-01T08:57:21Z</time>
      </trkpt>
      <trkpt lat="48.90517" lon="1.99382">
        <ele>169</ele>
        <time>2026-06-01T08:58:05Z</time>
      </trkpt>
      <trkpt lat="48.90527" lon="1.99359">
        <ele>169</ele>
        <time>2026-06-01T08:58:09Z</time>
      </trkpt>
      <trkpt lat="48.90534" lon="1.99335">
        <ele>169</ele>
        <time>2026-06-01T08:58:13Z</time>
      </trkpt>
      <trkpt lat="48.90549" lon="1.99272">
        <ele>169</ele>
        <time>2026-06-01T08:58:23Z</time>
      </trkpt>
      <trkpt lat="48.90551" lon="1.99263">
        <ele>169</ele>
        <time>2026-06-01T08:58:25Z</time>
      </trkpt>
      <trkpt lat="48.90548" lon="1.99247">
        <ele>169</ele>
        <time>2026-06-01T08:58:27Z</time>
      </trkpt>
      <trkpt lat="48.90553" lon="1.99235">
        <ele>169</ele>
        <time>2026-06-01T08:58:30Z</time>
      </trkpt>
      <trkpt lat="48.90561" lon="1.99225">
        <ele>169</ele>
        <time>2026-06-01T08:58:32Z</time>
      </trkpt>
      <trkpt lat="48.90573" lon="1.99174">
        <ele>168</ele>
        <time>2026-06-01T08:58:40Z</time>
      </trkpt>
      <trkpt lat="48.90598" lon="1.99107">
        <ele>168</ele>
        <time>2026-06-01T08:58:52Z</time>
      </trkpt>
      <trkpt lat="48.90607" lon="1.99097">
        <ele>168</ele>
        <time>2026-06-01T08:58:55Z</time>
      </trkpt>
      <trkpt lat="48.90618" lon="1.99091">
        <ele>168</ele>
        <time>2026-06-01T08:58:58Z</time>
      </trkpt>
      <trkpt lat="48.90644" lon="1.99069">
        <ele>169</ele>
        <time>2026-06-01T08:59:04Z</time>
      </trkpt>
      <trkpt lat="48.90653" lon="1.99064">
        <ele>169</ele>
        <time>2026-06-01T08:59:07Z</time>
      </trkpt>
      <trkpt lat="48.90667" lon="1.99048">
        <ele>169</ele>
        <time>2026-06-01T08:59:11Z</time>
      </trkpt>
      <trkpt lat="48.90686" lon="1.99037">
        <ele>169</ele>
        <time>2026-06-01T08:59:16Z</time>
      </trkpt>
      <trkpt lat="48.9069" lon="1.99031">
        <ele>169</ele>
        <time>2026-06-01T08:59:17Z</time>
      </trkpt>
      <trkpt lat="48.90696" lon="1.9903">
        <ele>170</ele>
        <time>2026-06-01T08:59:18Z</time>
      </trkpt>
      <trkpt lat="48.90717" lon="1.99003">
        <ele>170</ele>
        <time>2026-06-01T08:59:25Z</time>
      </trkpt>
      <trkpt lat="48.90738" lon="1.98985">
        <ele>171</ele>
        <time>2026-06-01T08:59:30Z</time>
      </trkpt>
      <trkpt lat="48.90764" lon="1.98956">
        <ele>169</ele>
        <time>2026-06-01T08:59:38Z</time>
      </trkpt>
      <trkpt lat="48.90786" lon="1.98929">
        <ele>168</ele>
        <time>2026-06-01T08:59:44Z</time>
      </trkpt>
      <trkpt lat="48.90798" lon="1.98908">
        <ele>168</ele>
        <time>2026-06-01T08:59:49Z</time>
      </trkpt>
      <trkpt lat="48.90792" lon="1.98915">
        <ele>168</ele>
        <time>2026-06-01T08:59:50Z</time>
      </trkpt>
      <trkpt lat="48.90782" lon="1.98937">
        <ele>169</ele>
        <time>2026-06-01T08:59:55Z</time>
      </trkpt>
      <trkpt lat="48.90805" lon="1.98938">
        <ele>169</ele>
        <time>2026-06-01T09:00:00Z</time>
      </trkpt>
      <trkpt lat="48.90816" lon="1.98942">
        <ele>169</ele>
        <time>2026-06-01T09:00:03Z</time>
      </trkpt>
      <trkpt lat="48.90937" lon="1.99018">
        <ele>171</ele>
        <time>2026-06-01T09:00:33Z</time>
      </trkpt>
      <trkpt lat="48.90963" lon="1.99025">
        <ele>171</ele>
        <time>2026-06-01T09:00:39Z</time>
      </trkpt>
      <trkpt lat="48.91154" lon="1.99149">
        <ele>170</ele>
        <time>2026-06-01T09:01:28Z</time>
      </trkpt>
      <trkpt lat="48.91165" lon="1.9915">
        <ele>169</ele>
        <time>2026-06-01T09:01:30Z</time>
      </trkpt>
      <trkpt lat="48.91175" lon="1.99146">
        <ele>169</ele>
        <time>2026-06-01T09:01:33Z</time>
      </trkpt>
      <trkpt lat="48.91188" lon="1.99127">
        <ele>168</ele>
        <time>2026-06-01T09:01:37Z</time>
      </trkpt>
      <trkpt lat="48.91181" lon="1.99114">
        <ele>169</ele>
        <time>2026-06-01T09:01:40Z</time>
      </trkpt>
      <trkpt lat="48.9118" lon="1.99101">
        <ele>169</ele>
        <time>2026-06-01T09:01:42Z</time>
      </trkpt>
      <trkpt lat="48.91185" lon="1.99086">
        <ele>169</ele>
        <time>2026-06-01T09:01:44Z</time>
      </trkpt>
      <trkpt lat="48.91191" lon="1.99049">
        <ele>168</ele>
        <time>2026-06-01T09:01:50Z</time>
      </trkpt>
      <trkpt lat="48.91203" lon="1.99019">
        <ele>168</ele>
        <time>2026-06-01T09:01:55Z</time>
      </trkpt>
      <trkpt lat="48.9121" lon="1.98985">
        <ele>169</ele>
        <time>2026-06-01T09:02:01Z</time>
      </trkpt>
      <trkpt lat="48.9121" lon="1.9895">
        <ele>172</ele>
        <time>2026-06-01T09:02:06Z</time>
      </trkpt>
      <trkpt lat="48.912" lon="1.98935">
        <ele>172</ele>
        <time>2026-06-01T09:02:10Z</time>
      </trkpt>
      <trkpt lat="48.91197" lon="1.98924">
        <ele>173</ele>
        <time>2026-06-01T09:02:11Z</time>
      </trkpt>
      <trkpt lat="48.91191" lon="1.98914">
        <ele>173</ele>
        <time>2026-06-01T09:02:13Z</time>
      </trkpt>
      <trkpt lat="48.91195" lon="1.98886">
        <ele>174</ele>
        <time>2026-06-01T09:02:18Z</time>
      </trkpt>
      <trkpt lat="48.91196" lon="1.98855">
        <ele>175</ele>
        <time>2026-06-01T09:02:23Z</time>
      </trkpt>
      <trkpt lat="48.91211" lon="1.98796">
        <ele>175</ele>
        <time>2026-06-01T09:02:32Z</time>
      </trkpt>
      <trkpt lat="48.9122" lon="1.98782">
        <ele>175</ele>
        <time>2026-06-01T09:02:35Z</time>
      </trkpt>
      <trkpt lat="48.91262" lon="1.98755">
        <ele>174</ele>
        <time>2026-06-01T09:02:46Z</time>
      </trkpt>
      <trkpt lat="48.91307" lon="1.98741">
        <ele>175</ele>
        <time>2026-06-01T09:02:57Z</time>
      </trkpt>
      <trkpt lat="48.91344" lon="1.98726">
        <ele>175</ele>
        <time>2026-06-01T09:03:06Z</time>
      </trkpt>
      <trkpt lat="48.91366" lon="1.98714">
        <ele>174</ele>
        <time>2026-06-01T09:03:11Z</time>
      </trkpt>
      <trkpt lat="48.91382" lon="1.98709">
        <ele>173</ele>
        <time>2026-06-01T09:03:15Z</time>
      </trkpt>
      <trkpt lat="48.91404" lon="1.98695">
        <ele>172</ele>
        <time>2026-06-01T09:03:20Z</time>
      </trkpt>
      <trkpt lat="48.91425" lon="1.9867">
        <ele>171</ele>
        <time>2026-06-01T09:03:27Z</time>
      </trkpt>
      <trkpt lat="48.91441" lon="1.98633">
        <ele>169</ele>
        <time>2026-06-01T09:03:34Z</time>
      </trkpt>
      <trkpt lat="48.91452" lon="1.98591">
        <ele>167</ele>
        <time>2026-06-01T09:03:40Z</time>
      </trkpt>
      <trkpt lat="48.91457" lon="1.98493">
        <ele>163</ele>
        <time>2026-06-01T09:03:56Z</time>
      </trkpt>
      <trkpt lat="48.91453" lon="1.98469">
        <ele>164</ele>
        <time>2026-06-01T09:03:59Z</time>
      </trkpt>
      <trkpt lat="48.91455" lon="1.98404">
        <ele>165</ele>
        <time>2026-06-01T09:04:09Z</time>
      </trkpt>
      <trkpt lat="48.91451" lon="1.98365">
        <ele>165</ele>
        <time>2026-06-01T09:04:15Z</time>
      </trkpt>
      <trkpt lat="48.91451" lon="1.98346">
        <ele>165</ele>
        <time>2026-06-01T09:04:18Z</time>
      </trkpt>
      <trkpt lat="48.91455" lon="1.9834">
        <ele>165</ele>
        <time>2026-06-01T09:04:20Z</time>
      </trkpt>
      <trkpt lat="48.9149" lon="1.98331">
        <ele>166</ele>
        <time>2026-06-01T09:04:28Z</time>
      </trkpt>
      <trkpt lat="48.91507" lon="1.98332">
        <ele>165</ele>
        <time>2026-06-01T09:04:32Z</time>
      </trkpt>
      <trkpt lat="48.91565" lon="1.98327">
        <ele>160</ele>
        <time>2026-06-01T09:04:45Z</time>
      </trkpt>
      <trkpt lat="48.91609" lon="1.98329">
        <ele>156</ele>
        <time>2026-06-01T09:04:56Z</time>
      </trkpt>
      <trkpt lat="48.91656" lon="1.98325">
        <ele>149</ele>
        <time>2026-06-01T09:05:07Z</time>
      </trkpt>
      <trkpt lat="48.91692" lon="1.98325">
        <ele>146</ele>
        <time>2026-06-01T09:05:15Z</time>
      </trkpt>
      <trkpt lat="48.91702" lon="1.98322">
        <ele>145</ele>
        <time>2026-06-01T09:05:17Z</time>
      </trkpt>
      <trkpt lat="48.91738" lon="1.98305">
        <ele>142</ele>
        <time>2026-06-01T09:05:26Z</time>
      </trkpt>
      <trkpt lat="48.91766" lon="1.98288">
        <ele>139</ele>
        <time>2026-06-01T09:05:33Z</time>
      </trkpt>
      <trkpt lat="48.91773" lon="1.98281">
        <ele>139</ele>
        <time>2026-06-01T09:05:35Z</time>
      </trkpt>
      <trkpt lat="48.91789" lon="1.98275">
        <ele>138</ele>
        <time>2026-06-01T09:05:39Z</time>
      </trkpt>
      <trkpt lat="48.91803" lon="1.98265">
        <ele>137</ele>
        <time>2026-06-01T09:05:43Z</time>
      </trkpt>
      <trkpt lat="48.91821" lon="1.98257">
        <ele>136</ele>
        <time>2026-06-01T09:05:47Z</time>
      </trkpt>
      <trkpt lat="48.91826" lon="1.98248">
        <ele>136</ele>
        <time>2026-06-01T09:05:49Z</time>
      </trkpt>
      <trkpt lat="48.91825" lon="1.9823">
        <ele>136</ele>
        <time>2026-06-01T09:05:52Z</time>
      </trkpt>
      <trkpt lat="48.91829" lon="1.98218">
        <ele>135</ele>
        <time>2026-06-01T09:05:54Z</time>
      </trkpt>
      <trkpt lat="48.91867" lon="1.98184">
        <ele>131</ele>
        <time>2026-06-01T09:06:04Z</time>
      </trkpt>
      <trkpt lat="48.91875" lon="1.9814">
        <ele>128</ele>
        <time>2026-06-01T09:06:11Z</time>
      </trkpt>
      <trkpt lat="48.91869" lon="1.98089">
        <ele>126</ele>
        <time>2026-06-01T09:06:19Z</time>
      </trkpt>
      <trkpt lat="48.9186" lon="1.98065">
        <ele>126</ele>
        <time>2026-06-01T09:06:23Z</time>
      </trkpt>
      <trkpt lat="48.9184" lon="1.98045">
        <ele>127</ele>
        <time>2026-06-01T09:06:29Z</time>
      </trkpt>
      <trkpt lat="48.91829" lon="1.98009">
        <ele>125</ele>
        <time>2026-06-01T09:06:35Z</time>
      </trkpt>
      <trkpt lat="48.91819" lon="1.97995">
        <ele>125</ele>
        <time>2026-06-01T09:06:38Z</time>
      </trkpt>
      <trkpt lat="48.91798" lon="1.97977">
        <ele>124</ele>
        <time>2026-06-01T09:06:44Z</time>
      </trkpt>
      <trkpt lat="48.91769" lon="1.97964">
        <ele>126</ele>
        <time>2026-06-01T09:06:51Z</time>
      </trkpt>
      <trkpt lat="48.91751" lon="1.9796">
        <ele>127</ele>
        <time>2026-06-01T09:06:55Z</time>
      </trkpt>
      <trkpt lat="48.91705" lon="1.97971">
        <ele>132</ele>
        <time>2026-06-01T09:07:06Z</time>
      </trkpt>
      <trkpt lat="48.91669" lon="1.97973">
        <ele>135</ele>
        <time>2026-06-01T09:07:14Z</time>
      </trkpt>
      <trkpt lat="48.91651" lon="1.97981">
        <ele>136</ele>
        <time>2026-06-01T09:07:19Z</time>
      </trkpt>
      <trkpt lat="48.91636" lon="1.97983">
        <ele>136</ele>
        <time>2026-06-01T09:07:22Z</time>
      </trkpt>
      <trkpt lat="48.91627" lon="1.97988">
        <ele>137</ele>
        <time>2026-06-01T09:07:24Z</time>
      </trkpt>
      <trkpt lat="48.91622" lon="1.97987">
        <ele>137</ele>
        <time>2026-06-01T09:07:26Z</time>
      </trkpt>
      <trkpt lat="48.916" lon="1.9795">
        <ele>136</ele>
        <time>2026-06-01T09:07:33Z</time>
      </trkpt>
      <trkpt lat="48.91575" lon="1.97915">
        <ele>135</ele>
        <time>2026-06-01T09:07:41Z</time>
      </trkpt>
      <trkpt lat="48.91536" lon="1.97871">
        <ele>134</ele>
        <time>2026-06-01T09:07:53Z</time>
      </trkpt>
      <trkpt lat="48.91511" lon="1.97835">
        <ele>134</ele>
        <time>2026-06-01T09:08:01Z</time>
      </trkpt>
      <trkpt lat="48.91484" lon="1.97782">
        <ele>132</ele>
        <time>2026-06-01T09:08:11Z</time>
      </trkpt>
      <trkpt lat="48.91481" lon="1.97766">
        <ele>131</ele>
        <time>2026-06-01T09:08:13Z</time>
      </trkpt>
      <trkpt lat="48.91475" lon="1.97751">
        <ele>130</ele>
        <time>2026-06-01T09:08:16Z</time>
      </trkpt>
      <trkpt lat="48.91463" lon="1.97734">
        <ele>129</ele>
        <time>2026-06-01T09:08:20Z</time>
      </trkpt>
      <trkpt lat="48.91455" lon="1.97726">
        <ele>128</ele>
        <time>2026-06-01T09:08:22Z</time>
      </trkpt>
      <trkpt lat="48.91432" lon="1.97713">
        <ele>126</ele>
        <time>2026-06-01T09:08:28Z</time>
      </trkpt>
      <trkpt lat="48.91412" lon="1.97708">
        <ele>125</ele>
        <time>2026-06-01T09:08:33Z</time>
      </trkpt>
      <trkpt lat="48.91403" lon="1.97701">
        <ele>124</ele>
        <time>2026-06-01T09:08:35Z</time>
      </trkpt>
      <trkpt lat="48.91405" lon="1.97691">
        <ele>124</ele>
        <time>2026-06-01T09:08:37Z</time>
      </trkpt>
      <trkpt lat="48.9143" lon="1.9765">
        <ele>121</ele>
        <time>2026-06-01T09:08:45Z</time>
      </trkpt>
      <trkpt lat="48.91445" lon="1.97613">
        <ele>119</ele>
        <time>2026-06-01T09:08:52Z</time>
      </trkpt>
      <trkpt lat="48.91454" lon="1.97582">
        <ele>116</ele>
        <time>2026-06-01T09:08:57Z</time>
      </trkpt>
      <trkpt lat="48.91458" lon="1.9755">
        <ele>116</ele>
        <time>2026-06-01T09:09:02Z</time>
      </trkpt>
      <trkpt lat="48.91454" lon="1.97514">
        <ele>115</ele>
        <time>2026-06-01T09:09:08Z</time>
      </trkpt>
      <trkpt lat="48.91456" lon="1.97482">
        <ele>114</ele>
        <time>2026-06-01T09:09:13Z</time>
      </trkpt>
      <trkpt lat="48.91455" lon="1.97436">
        <ele>114</ele>
        <time>2026-06-01T09:09:20Z</time>
      </trkpt>
      <trkpt lat="48.91467" lon="1.97418">
        <ele>113</ele>
        <time>2026-06-01T09:09:24Z</time>
      </trkpt>
      <trkpt lat="48.91501" lon="1.97297">
        <ele>114</ele>
        <time>2026-06-01T09:09:44Z</time>
      </trkpt>
      <trkpt lat="48.91513" lon="1.97251">
        <ele>116</ele>
        <time>2026-06-01T09:09:51Z</time>
      </trkpt>
      <trkpt lat="48.91515" lon="1.97234">
        <ele>116</ele>
        <time>2026-06-01T09:09:54Z</time>
      </trkpt>
      <trkpt lat="48.91514" lon="1.97223">
        <ele>117</ele>
        <time>2026-06-01T09:09:56Z</time>
      </trkpt>
      <trkpt lat="48.91503" lon="1.972">
        <ele>118</ele>
        <time>2026-06-01T09:10:00Z</time>
      </trkpt>
      <trkpt lat="48.9148" lon="1.97139">
        <ele>118</ele>
        <time>2026-06-01T09:10:11Z</time>
      </trkpt>
      <trkpt lat="48.91472" lon="1.97074">
        <ele>120</ele>
        <time>2026-06-01T09:10:21Z</time>
      </trkpt>
      <trkpt lat="48.91477" lon="1.97019">
        <ele>123</ele>
        <time>2026-06-01T09:10:30Z</time>
      </trkpt>
      <trkpt lat="48.91457" lon="1.96972">
        <ele>124</ele>
        <time>2026-06-01T09:10:38Z</time>
      </trkpt>
      <trkpt lat="48.91462" lon="1.96959">
        <ele>125</ele>
        <time>2026-06-01T09:10:41Z</time>
      </trkpt>
      <trkpt lat="48.91505" lon="1.9691">
        <ele>129</ele>
        <time>2026-06-01T09:10:53Z</time>
      </trkpt>
      <trkpt lat="48.91498" lon="1.96854">
        <ele>132</ele>
        <time>2026-06-01T09:11:02Z</time>
      </trkpt>
      <trkpt lat="48.91499" lon="1.9682">
        <ele>133</ele>
        <time>2026-06-01T09:11:07Z</time>
      </trkpt>
      <trkpt lat="48.91503" lon="1.96788">
        <ele>134</ele>
        <time>2026-06-01T09:11:12Z</time>
      </trkpt>
      <trkpt lat="48.91502" lon="1.9676">
        <ele>134</ele>
        <time>2026-06-01T09:11:16Z</time>
      </trkpt>
      <trkpt lat="48.91497" lon="1.96736">
        <ele>134</ele>
        <time>2026-06-01T09:11:20Z</time>
      </trkpt>
      <trkpt lat="48.91482" lon="1.96695">
        <ele>133</ele>
        <time>2026-06-01T09:11:27Z</time>
      </trkpt>
      <trkpt lat="48.91475" lon="1.9668">
        <ele>132</ele>
        <time>2026-06-01T09:11:30Z</time>
      </trkpt>
      <trkpt lat="48.91456" lon="1.96654">
        <ele>132</ele>
        <time>2026-06-01T09:11:36Z</time>
      </trkpt>
      <trkpt lat="48.91453" lon="1.96642">
        <ele>133</ele>
        <time>2026-06-01T09:11:38Z</time>
      </trkpt>
      <trkpt lat="48.91459" lon="1.9663">
        <ele>133</ele>
        <time>2026-06-01T09:11:40Z</time>
      </trkpt>
      <trkpt lat="48.91497" lon="1.96594">
        <ele>137</ele>
        <time>2026-06-01T09:11:51Z</time>
      </trkpt>
      <trkpt lat="48.91554" lon="1.96534">
        <ele>147</ele>
        <time>2026-06-01T09:12:07Z</time>
      </trkpt>
      <trkpt lat="48.91583" lon="1.96514">
        <ele>151</ele>
        <time>2026-06-01T09:12:15Z</time>
      </trkpt>
      <trkpt lat="48.91612" lon="1.96501">
        <ele>153</ele>
        <time>2026-06-01T09:12:22Z</time>
      </trkpt>
      <trkpt lat="48.91633" lon="1.96495">
        <ele>154</ele>
        <time>2026-06-01T09:12:27Z</time>
      </trkpt>
      <trkpt lat="48.91636" lon="1.9649">
        <ele>155</ele>
        <time>2026-06-01T09:12:28Z</time>
      </trkpt>
      <trkpt lat="48.91615" lon="1.96364">
        <ele>165</ele>
        <time>2026-06-01T09:12:48Z</time>
      </trkpt>
      <trkpt lat="48.91606" lon="1.9634">
        <ele>168</ele>
        <time>2026-06-01T09:12:52Z</time>
      </trkpt>
      <trkpt lat="48.91603" lon="1.96324">
        <ele>169</ele>
        <time>2026-06-01T09:12:54Z</time>
      </trkpt>
      <trkpt lat="48.91607" lon="1.96301">
        <ele>171</ele>
        <time>2026-06-01T09:12:58Z</time>
      </trkpt>
      <trkpt lat="48.91624" lon="1.96271">
        <ele>173</ele>
        <time>2026-06-01T09:13:04Z</time>
      </trkpt>
      <trkpt lat="48.91628" lon="1.96257">
        <ele>173</ele>
        <time>2026-06-01T09:13:06Z</time>
      </trkpt>
      <trkpt lat="48.9163" lon="1.96202">
        <ele>174</ele>
        <time>2026-06-01T09:13:15Z</time>
      </trkpt>
      <trkpt lat="48.91627" lon="1.96163">
        <ele>173</ele>
        <time>2026-06-01T09:13:21Z</time>
      </trkpt>
      <trkpt lat="48.9163" lon="1.9615">
        <ele>173</ele>
        <time>2026-06-01T09:13:23Z</time>
      </trkpt>
      <trkpt lat="48.91635" lon="1.96141">
        <ele>173</ele>
        <time>2026-06-01T09:13:25Z</time>
      </trkpt>
      <trkpt lat="48.91631" lon="1.9612">
        <ele>173</ele>
        <time>2026-06-01T09:13:28Z</time>
      </trkpt>
      <trkpt lat="48.91641" lon="1.961">
        <ele>173</ele>
        <time>2026-06-01T09:13:32Z</time>
      </trkpt>
      <trkpt lat="48.91643" lon="1.96089">
        <ele>173</ele>
        <time>2026-06-01T09:13:34Z</time>
      </trkpt>
      <trkpt lat="48.9164" lon="1.9605">
        <ele>173</ele>
        <time>2026-06-01T09:13:40Z</time>
      </trkpt>
      <trkpt lat="48.91649" lon="1.96012">
        <ele>173</ele>
        <time>2026-06-01T09:13:46Z</time>
      </trkpt>
      <trkpt lat="48.91647" lon="1.95963">
        <ele>174</ele>
        <time>2026-06-01T09:13:54Z</time>
      </trkpt>
      <trkpt lat="48.9165" lon="1.95954">
        <ele>174</ele>
        <time>2026-06-01T09:13:55Z</time>
      </trkpt>
      <trkpt lat="48.91651" lon="1.95931">
        <ele>175</ele>
        <time>2026-06-01T09:13:59Z</time>
      </trkpt>
      <trkpt lat="48.91649" lon="1.95922">
        <ele>175</ele>
        <time>2026-06-01T09:14:00Z</time>
      </trkpt>
      <trkpt lat="48.91639" lon="1.95907">
        <ele>176</ele>
        <time>2026-06-01T09:14:03Z</time>
      </trkpt>
      <trkpt lat="48.91627" lon="1.95897">
        <ele>176</ele>
        <time>2026-06-01T09:14:07Z</time>
      </trkpt>
      <trkpt lat="48.91616" lon="1.95871">
        <ele>177</ele>
        <time>2026-06-01T09:14:11Z</time>
      </trkpt>
      <trkpt lat="48.91602" lon="1.95864">
        <ele>177</ele>
        <time>2026-06-01T09:14:15Z</time>
      </trkpt>
      <trkpt lat="48.91592" lon="1.95865">
        <ele>177</ele>
        <time>2026-06-01T09:14:17Z</time>
      </trkpt>
      <trkpt lat="48.91585" lon="1.95862">
        <ele>178</ele>
        <time>2026-06-01T09:14:19Z</time>
      </trkpt>
      <trkpt lat="48.91573" lon="1.95867">
        <ele>178</ele>
        <time>2026-06-01T09:14:22Z</time>
      </trkpt>
      <trkpt lat="48.91561" lon="1.95876">
        <ele>177</ele>
        <time>2026-06-01T09:14:25Z</time>
      </trkpt>
      <trkpt lat="48.91552" lon="1.95878">
        <ele>177</ele>
        <time>2026-06-01T09:14:27Z</time>
      </trkpt>
      <trkpt lat="48.91538" lon="1.95892">
        <ele>177</ele>
        <time>2026-06-01T09:14:31Z</time>
      </trkpt>
      <trkpt lat="48.9152" lon="1.95901">
        <ele>177</ele>
        <time>2026-06-01T09:14:35Z</time>
      </trkpt>
      <trkpt lat="48.91496" lon="1.95919">
        <ele>177</ele>
        <time>2026-06-01T09:14:42Z</time>
      </trkpt>
      <trkpt lat="48.91482" lon="1.95926">
        <ele>176</ele>
        <time>2026-06-01T09:14:45Z</time>
      </trkpt>
      <trkpt lat="48.91456" lon="1.95927">
        <ele>175</ele>
        <time>2026-06-01T09:14:51Z</time>
      </trkpt>
      <trkpt lat="48.91444" lon="1.95922">
        <ele>175</ele>
        <time>2026-06-01T09:14:54Z</time>
      </trkpt>
      <trkpt lat="48.91441" lon="1.95897">
        <ele>176</ele>
        <time>2026-06-01T09:14:58Z</time>
      </trkpt>
      <trkpt lat="48.91433" lon="1.95884">
        <ele>176</ele>
        <time>2026-06-01T09:15:01Z</time>
      </trkpt>
      <trkpt lat="48.91409" lon="1.95825">
        <ele>176</ele>
        <time>2026-06-01T09:15:11Z</time>
      </trkpt>
      <trkpt lat="48.91392" lon="1.95792">
        <ele>175</ele>
        <time>2026-06-01T09:15:18Z</time>
      </trkpt>
      <trkpt lat="48.91369" lon="1.95737">
        <ele>174</ele>
        <time>2026-06-01T09:15:28Z</time>
      </trkpt>
      <trkpt lat="48.91335" lon="1.95669">
        <ele>172</ele>
        <time>2026-06-01T09:15:41Z</time>
      </trkpt>
      <trkpt lat="48.91334" lon="1.95655">
        <ele>172</ele>
        <time>2026-06-01T09:15:43Z</time>
      </trkpt>
      <trkpt lat="48.91337" lon="1.9563">
        <ele>173</ele>
        <time>2026-06-01T09:15:47Z</time>
      </trkpt>
      <trkpt lat="48.91332" lon="1.95542">
        <ele>176</ele>
        <time>2026-06-01T09:16:00Z</time>
      </trkpt>
      <trkpt lat="48.91334" lon="1.95522">
        <ele>177</ele>
        <time>2026-06-01T09:16:04Z</time>
      </trkpt>
      <trkpt lat="48.9133" lon="1.95445">
        <ele>178</ele>
        <time>2026-06-01T09:16:15Z</time>
      </trkpt>
      <trkpt lat="48.91309" lon="1.95401">
        <ele>176</ele>
        <time>2026-06-01T09:16:24Z</time>
      </trkpt>
      <trkpt lat="48.91282" lon="1.95361">
        <ele>173</ele>
        <time>2026-06-01T09:16:33Z</time>
      </trkpt>
      <trkpt lat="48.91271" lon="1.95337">
        <ele>172</ele>
        <time>2026-06-01T09:16:37Z</time>
      </trkpt>
      <trkpt lat="48.91263" lon="1.95307">
        <ele>172</ele>
        <time>2026-06-01T09:16:42Z</time>
      </trkpt>
      <trkpt lat="48.91255" lon="1.95256">
        <ele>175</ele>
        <time>2026-06-01T09:16:50Z</time>
      </trkpt>
      <trkpt lat="48.91243" lon="1.95202">
        <ele>175</ele>
        <time>2026-06-01T09:16:59Z</time>
      </trkpt>
      <trkpt lat="48.91218" lon="1.95097">
        <ele>175</ele>
        <time>2026-06-01T09:17:16Z</time>
      </trkpt>
      <trkpt lat="48.91211" lon="1.95076">
        <ele>175</ele>
        <time>2026-06-01T09:17:20Z</time>
      </trkpt>
      <trkpt lat="48.91201" lon="1.95064">
        <ele>175</ele>
        <time>2026-06-01T09:17:23Z</time>
      </trkpt>
      <trkpt lat="48.91178" lon="1.95045">
        <ele>175</ele>
        <time>2026-06-01T09:17:29Z</time>
      </trkpt>
      <trkpt lat="48.91072" lon="1.94973">
        <ele>176</ele>
        <time>2026-06-01T09:17:56Z</time>
      </trkpt>
      <trkpt lat="48.91067" lon="1.94967">
        <ele>176</ele>
        <time>2026-06-01T09:17:57Z</time>
      </trkpt>
      <trkpt lat="48.91052" lon="1.94936">
        <ele>174</ele>
        <time>2026-06-01T09:18:03Z</time>
      </trkpt>
      <trkpt lat="48.9105" lon="1.94919">
        <ele>173</ele>
        <time>2026-06-01T09:18:06Z</time>
      </trkpt>
      <trkpt lat="48.91044" lon="1.94906">
        <ele>173</ele>
        <time>2026-06-01T09:18:08Z</time>
      </trkpt>
      <trkpt lat="48.91042" lon="1.94891">
        <ele>173</ele>
        <time>2026-06-01T09:18:11Z</time>
      </trkpt>
      <trkpt lat="48.91032" lon="1.94861">
        <ele>173</ele>
        <time>2026-06-01T09:18:16Z</time>
      </trkpt>
      <trkpt lat="48.91018" lon="1.94805">
        <ele>174</ele>
        <time>2026-06-01T09:18:25Z</time>
      </trkpt>
      <trkpt lat="48.90962" lon="1.94706">
        <ele>178</ele>
        <time>2026-06-01T09:18:45Z</time>
      </trkpt>
      <trkpt lat="48.90927" lon="1.9466">
        <ele>180</ele>
        <time>2026-06-01T09:18:56Z</time>
      </trkpt>
      <trkpt lat="48.90882" lon="1.94586">
        <ele>177</ele>
        <time>2026-06-01T09:19:11Z</time>
      </trkpt>
      <trkpt lat="48.90878" lon="1.9457">
        <ele>177</ele>
        <time>2026-06-01T09:19:14Z</time>
      </trkpt>
      <trkpt lat="48.90877" lon="1.9454">
        <ele>177</ele>
        <time>2026-06-01T09:19:19Z</time>
      </trkpt>
      <trkpt lat="48.90867" lon="1.94487">
        <ele>176</ele>
        <time>2026-06-01T09:19:27Z</time>
      </trkpt>
      <trkpt lat="48.90843" lon="1.94423">
        <ele>177</ele>
        <time>2026-06-01T09:19:38Z</time>
      </trkpt>
      <trkpt lat="48.90844" lon="1.9441">
        <ele>177</ele>
        <time>2026-06-01T09:19:40Z</time>
      </trkpt>
      <trkpt lat="48.90839" lon="1.94379">
        <ele>176</ele>
        <time>2026-06-01T09:19:45Z</time>
      </trkpt>
      <trkpt lat="48.90842" lon="1.94357">
        <ele>176</ele>
        <time>2026-06-01T09:19:49Z</time>
      </trkpt>
      <trkpt lat="48.90841" lon="1.94336">
        <ele>175</ele>
        <time>2026-06-01T09:19:52Z</time>
      </trkpt>
      <trkpt lat="48.90826" lon="1.94303">
        <ele>173</ele>
        <time>2026-06-01T09:19:58Z</time>
      </trkpt>
      <trkpt lat="48.90819" lon="1.94236">
        <ele>170</ele>
        <time>2026-06-01T09:20:08Z</time>
      </trkpt>
      <trkpt lat="48.90831" lon="1.94193">
        <ele>171</ele>
        <time>2026-06-01T09:20:16Z</time>
      </trkpt>
      <trkpt lat="48.90824" lon="1.94163">
        <ele>170</ele>
        <time>2026-06-01T09:20:21Z</time>
      </trkpt>
      <trkpt lat="48.90774" lon="1.94024">
        <ele>169</ele>
        <time>2026-06-01T09:20:45Z</time>
      </trkpt>
      <trkpt lat="48.90756" lon="1.93932">
        <ele>170</ele>
        <time>2026-06-01T09:21:00Z</time>
      </trkpt>
      <trkpt lat="48.90738" lon="1.93875">
        <ele>171</ele>
        <time>2026-06-01T09:21:09Z</time>
      </trkpt>
      <trkpt lat="48.90728" lon="1.93854">
        <ele>171</ele>
        <time>2026-06-01T09:21:13Z</time>
      </trkpt>
      <trkpt lat="48.9069" lon="1.93791">
        <ele>170</ele>
        <time>2026-06-01T09:21:26Z</time>
      </trkpt>
      <trkpt lat="48.90679" lon="1.93767">
        <ele>170</ele>
        <time>2026-06-01T09:21:31Z</time>
      </trkpt>
      <trkpt lat="48.90628" lon="1.93678">
        <ele>171</ele>
        <time>2026-06-01T09:21:49Z</time>
      </trkpt>
      <trkpt lat="48.90604" lon="1.93647">
        <ele>172</ele>
        <time>2026-06-01T09:21:56Z</time>
      </trkpt>
      <trkpt lat="48.90586" lon="1.93629">
        <ele>173</ele>
        <time>2026-06-01T09:22:01Z</time>
      </trkpt>
      <trkpt lat="48.90563" lon="1.9361">
        <ele>173</ele>
        <time>2026-06-01T09:22:07Z</time>
      </trkpt>
      <trkpt lat="48.90528" lon="1.93589">
        <ele>174</ele>
        <time>2026-06-01T09:22:16Z</time>
      </trkpt>
      <trkpt lat="48.90503" lon="1.93565">
        <ele>174</ele>
        <time>2026-06-01T09:22:23Z</time>
      </trkpt>
      <trkpt lat="48.90484" lon="1.93541">
        <ele>173</ele>
        <time>2026-06-01T09:22:29Z</time>
      </trkpt>
      <trkpt lat="48.9047" lon="1.93507">
        <ele>172</ele>
        <time>2026-06-01T09:22:35Z</time>
      </trkpt>
      <trkpt lat="48.90465" lon="1.9348">
        <ele>172</ele>
        <time>2026-06-01T09:22:39Z</time>
      </trkpt>
      <trkpt lat="48.90461" lon="1.9343">
        <ele>173</ele>
        <time>2026-06-01T09:22:47Z</time>
      </trkpt>
      <trkpt lat="48.90455" lon="1.93413">
        <ele>173</ele>
        <time>2026-06-01T09:22:50Z</time>
      </trkpt>
      <trkpt lat="48.90435" lon="1.93381">
        <ele>173</ele>
        <time>2026-06-01T09:22:57Z</time>
      </trkpt>
      <trkpt lat="48.90376" lon="1.93316">
        <ele>172</ele>
        <time>2026-06-01T09:23:14Z</time>
      </trkpt>
      <trkpt lat="48.9033" lon="1.93277">
        <ele>173</ele>
        <time>2026-06-01T09:23:26Z</time>
      </trkpt>
      <trkpt lat="48.90238" lon="1.93177">
        <ele>183</ele>
        <time>2026-06-01T09:23:53Z</time>
      </trkpt>
      <trkpt lat="48.90224" lon="1.93156">
        <ele>185</ele>
        <time>2026-06-01T09:23:57Z</time>
      </trkpt>
      <trkpt lat="48.9021" lon="1.9314">
        <ele>187</ele>
        <time>2026-06-01T09:24:01Z</time>
      </trkpt>
      <trkpt lat="48.90166" lon="1.93099">
        <ele>190</ele>
        <time>2026-06-01T09:24:13Z</time>
      </trkpt>
      <trkpt lat="48.90137" lon="1.93066">
        <ele>188</ele>
        <time>2026-06-01T09:24:22Z</time>
      </trkpt>
      <trkpt lat="48.90115" lon="1.93045">
        <ele>186</ele>
        <time>2026-06-01T09:24:28Z</time>
      </trkpt>
      <trkpt lat="48.90096" lon="1.93015">
        <ele>184</ele>
        <time>2026-06-01T09:24:34Z</time>
      </trkpt>
      <trkpt lat="48.90064" lon="1.92981">
        <ele>183</ele>
        <time>2026-06-01T09:24:43Z</time>
      </trkpt>
      <trkpt lat="48.90008" lon="1.92932">
        <ele>183</ele>
        <time>2026-06-01T09:24:58Z</time>
      </trkpt>
      <trkpt lat="48.89949" lon="1.92886">
        <ele>185</ele>
        <time>2026-06-01T09:25:14Z</time>
      </trkpt>
      <trkpt lat="48.89892" lon="1.92837">
        <ele>186</ele>
        <time>2026-06-01T09:25:29Z</time>
      </trkpt>
      <trkpt lat="48.89817" lon="1.92779">
        <ele>186</ele>
        <time>2026-06-01T09:25:49Z</time>
      </trkpt>
      <trkpt lat="48.89816" lon="1.92768">
        <ele>186</ele>
        <time>2026-06-01T09:25:51Z</time>
      </trkpt>
      <trkpt lat="48.89819" lon="1.92752">
        <ele>185</ele>
        <time>2026-06-01T09:25:53Z</time>
      </trkpt>
      <trkpt lat="48.89858" lon="1.92623">
        <ele>184</ele>
        <time>2026-06-01T09:26:15Z</time>
      </trkpt>
      <trkpt lat="48.89857" lon="1.92616">
        <ele>184</ele>
        <time>2026-06-01T09:26:16Z</time>
      </trkpt>
      <trkpt lat="48.89852" lon="1.92608">
        <ele>184</ele>
        <time>2026-06-01T09:26:18Z</time>
      </trkpt>
      <trkpt lat="48.89851" lon="1.92598">
        <ele>185</ele>
        <time>2026-06-01T09:26:19Z</time>
      </trkpt>
      <trkpt lat="48.89867" lon="1.92535">
        <ele>184</ele>
        <time>2026-06-01T09:26:30Z</time>
      </trkpt>
      <trkpt lat="48.89882" lon="1.92492">
        <ele>183</ele>
        <time>2026-06-01T09:26:37Z</time>
      </trkpt>
      <trkpt lat="48.89893" lon="1.92449">
        <ele>182</ele>
        <time>2026-06-01T09:26:44Z</time>
      </trkpt>
      <trkpt lat="48.89906" lon="1.92421">
        <ele>183</ele>
        <time>2026-06-01T09:26:49Z</time>
      </trkpt>
      <trkpt lat="48.89907" lon="1.92414">
        <ele>183</ele>
        <time>2026-06-01T09:26:51Z</time>
      </trkpt>
      <trkpt lat="48.89904" lon="1.92389">
        <ele>183</ele>
        <time>2026-06-01T09:26:54Z</time>
      </trkpt>
      <trkpt lat="48.89899" lon="1.92377">
        <ele>183</ele>
        <time>2026-06-01T09:26:57Z</time>
      </trkpt>
      <trkpt lat="48.89846" lon="1.92346">
        <ele>180</ele>
        <time>2026-06-01T09:27:10Z</time>
      </trkpt>
      <trkpt lat="48.89839" lon="1.92335">
        <ele>179</ele>
        <time>2026-06-01T09:27:12Z</time>
      </trkpt>
      <trkpt lat="48.89839" lon="1.92326">
        <ele>179</ele>
        <time>2026-06-01T09:27:14Z</time>
      </trkpt>
      <trkpt lat="48.89836" lon="1.9232">
        <ele>179</ele>
        <time>2026-06-01T09:27:15Z</time>
      </trkpt>
      <trkpt lat="48.89806" lon="1.9234">
        <ele>177</ele>
        <time>2026-06-01T09:27:22Z</time>
      </trkpt>
      <trkpt lat="48.8978" lon="1.92351">
        <ele>176</ele>
        <time>2026-06-01T09:27:29Z</time>
      </trkpt>
      <trkpt lat="48.89732" lon="1.92364">
        <ele>175</ele>
        <time>2026-06-01T09:27:40Z</time>
      </trkpt>
      <trkpt lat="48.89688" lon="1.92368">
        <ele>172</ele>
        <time>2026-06-01T09:27:50Z</time>
      </trkpt>
      <trkpt lat="48.89672" lon="1.92373">
        <ele>172</ele>
        <time>2026-06-01T09:27:54Z</time>
      </trkpt>
      <trkpt lat="48.89596" lon="1.92412">
        <ele>166</ele>
        <time>2026-06-01T09:28:13Z</time>
      </trkpt>
      <trkpt lat="48.89524" lon="1.92453">
        <ele>162</ele>
        <time>2026-06-01T09:28:31Z</time>
      </trkpt>
      <trkpt lat="48.895" lon="1.92462">
        <ele>159</ele>
        <time>2026-06-01T09:28:37Z</time>
      </trkpt>
      <trkpt lat="48.89487" lon="1.92464">
        <ele>158</ele>
        <time>2026-06-01T09:28:40Z</time>
      </trkpt>
      <trkpt lat="48.89483" lon="1.92467">
        <ele>158</ele>
        <time>2026-06-01T09:28:41Z</time>
      </trkpt>
      <trkpt lat="48.89482" lon="1.92474">
        <ele>158</ele>
        <time>2026-06-01T09:28:42Z</time>
      </trkpt>
      <trkpt lat="48.89485" lon="1.92479">
        <ele>158</ele>
        <time>2026-06-01T09:28:43Z</time>
      </trkpt>
      <trkpt lat="48.89524" lon="1.92515">
        <ele>164</ele>
        <time>2026-06-01T09:28:54Z</time>
      </trkpt>
      <trkpt lat="48.89561" lon="1.92569">
        <ele>171</ele>
        <time>2026-06-01T09:29:06Z</time>
      </trkpt>
      <trkpt lat="48.89574" lon="1.92583">
        <ele>174</ele>
        <time>2026-06-01T09:29:09Z</time>
      </trkpt>
      <trkpt lat="48.896" lon="1.92594">
        <ele>178</ele>
        <time>2026-06-01T09:29:16Z</time>
      </trkpt>
      <trkpt lat="48.89609" lon="1.92593">
        <ele>179</ele>
        <time>2026-06-01T09:29:18Z</time>
      </trkpt>
      <trkpt lat="48.89649" lon="1.92601">
        <ele>184</ele>
        <time>2026-06-01T09:29:27Z</time>
      </trkpt>
      <trkpt lat="48.89672" lon="1.92619">
        <ele>187</ele>
        <time>2026-06-01T09:29:33Z</time>
      </trkpt>
      <trkpt lat="48.89679" lon="1.92651">
        <ele>187</ele>
        <time>2026-06-01T09:29:38Z</time>
      </trkpt>
      <trkpt lat="48.89673" lon="1.92736">
        <ele>189</ele>
        <time>2026-06-01T09:29:51Z</time>
      </trkpt>
      <trkpt lat="48.89672" lon="1.92786">
        <ele>189</ele>
        <time>2026-06-01T09:29:59Z</time>
      </trkpt>
      <trkpt lat="48.89668" lon="1.92811">
        <ele>189</ele>
        <time>2026-06-01T09:30:03Z</time>
      </trkpt>
      <trkpt lat="48.89666" lon="1.9287">
        <ele>189</ele>
        <time>2026-06-01T09:30:12Z</time>
      </trkpt>
      <trkpt lat="48.89659" lon="1.92931">
        <ele>187</ele>
        <time>2026-06-01T09:30:22Z</time>
      </trkpt>
      <trkpt lat="48.8966" lon="1.92945">
        <ele>187</ele>
        <time>2026-06-01T09:30:24Z</time>
      </trkpt>
      <trkpt lat="48.89676" lon="1.93001">
        <ele>188</ele>
        <time>2026-06-01T09:30:33Z</time>
      </trkpt>
      <trkpt lat="48.89676" lon="1.93011">
        <ele>188</ele>
        <time>2026-06-01T09:30:35Z</time>
      </trkpt>
      <trkpt lat="48.89659" lon="1.93068">
        <ele>188</ele>
        <time>2026-06-01T09:30:44Z</time>
      </trkpt>
      <trkpt lat="48.89646" lon="1.93157">
        <ele>187</ele>
        <time>2026-06-01T09:30:58Z</time>
      </trkpt>
      <trkpt lat="48.89601" lon="1.93314">
        <ele>188</ele>
        <time>2026-06-01T09:31:25Z</time>
      </trkpt>
      <trkpt lat="48.89595" lon="1.93326">
        <ele>189</ele>
        <time>2026-06-01T09:31:27Z</time>
      </trkpt>
      <trkpt lat="48.89566" lon="1.93367">
        <ele>189</ele>
        <time>2026-06-01T09:31:36Z</time>
      </trkpt>
      <trkpt lat="48.89561" lon="1.93381">
        <ele>189</ele>
        <time>2026-06-01T09:31:39Z</time>
      </trkpt>
      <trkpt lat="48.89555" lon="1.9339">
        <ele>189</ele>
        <time>2026-06-01T09:31:41Z</time>
      </trkpt>
      <trkpt lat="48.89548" lon="1.93416">
        <ele>190</ele>
        <time>2026-06-01T09:31:45Z</time>
      </trkpt>
      <trkpt lat="48.89545" lon="1.93438">
        <ele>189</ele>
        <time>2026-06-01T09:31:48Z</time>
      </trkpt>
      <trkpt lat="48.89531" lon="1.93468">
        <ele>188</ele>
        <time>2026-06-01T09:31:54Z</time>
      </trkpt>
      <trkpt lat="48.89535" lon="1.93513">
        <ele>188</ele>
        <time>2026-06-01T09:32:01Z</time>
      </trkpt>
      <trkpt lat="48.89547" lon="1.93574">
        <ele>187</ele>
        <time>2026-06-01T09:32:11Z</time>
      </trkpt>
      <trkpt lat="48.89551" lon="1.93609">
        <ele>187</ele>
        <time>2026-06-01T09:32:16Z</time>
      </trkpt>
      <trkpt lat="48.89548" lon="1.93621">
        <ele>187</ele>
        <time>2026-06-01T09:32:18Z</time>
      </trkpt>
      <trkpt lat="48.89506" lon="1.93646">
        <ele>185</ele>
        <time>2026-06-01T09:32:29Z</time>
      </trkpt>
      <trkpt lat="48.89469" lon="1.93648">
        <ele>184</ele>
        <time>2026-06-01T09:32:37Z</time>
      </trkpt>
      <trkpt lat="48.89464" lon="1.93652">
        <ele>184</ele>
        <time>2026-06-01T09:32:39Z</time>
      </trkpt>
      <trkpt lat="48.89463" lon="1.93661">
        <ele>184</ele>
        <time>2026-06-01T09:32:40Z</time>
      </trkpt>
      <trkpt lat="48.89452" lon="1.93674">
        <ele>184</ele>
        <time>2026-06-01T09:32:43Z</time>
      </trkpt>
      <trkpt lat="48.8943" lon="1.93725">
        <ele>185</ele>
        <time>2026-06-01T09:32:53Z</time>
      </trkpt>
      <trkpt lat="48.89409" lon="1.93783">
        <ele>187</ele>
        <time>2026-06-01T09:33:03Z</time>
      </trkpt>
      <trkpt lat="48.89408" lon="1.93806">
        <ele>187</ele>
        <time>2026-06-01T09:33:06Z</time>
      </trkpt>
      <trkpt lat="48.89418" lon="1.93854">
        <ele>189</ele>
        <time>2026-06-01T09:33:14Z</time>
      </trkpt>
      <trkpt lat="48.89413" lon="1.93883">
        <ele>190</ele>
        <time>2026-06-01T09:33:19Z</time>
      </trkpt>
      <trkpt lat="48.89282" lon="1.94106">
        <ele>192</ele>
        <time>2026-06-01T09:34:05Z</time>
      </trkpt>
      <trkpt lat="48.89218" lon="1.94222">
        <ele>192</ele>
        <time>2026-06-01T09:34:28Z</time>
      </trkpt>
      <trkpt lat="48.892" lon="1.94248">
        <ele>192</ele>
        <time>2026-06-01T09:34:34Z</time>
      </trkpt>
      <trkpt lat="48.89171" lon="1.94303">
        <ele>192</ele>
        <time>2026-06-01T09:34:45Z</time>
      </trkpt>
      <trkpt lat="48.8916" lon="1.94312">
        <ele>191</ele>
        <time>2026-06-01T09:34:47Z</time>
      </trkpt>
      <trkpt lat="48.89142" lon="1.94317">
        <ele>190</ele>
        <time>2026-06-01T09:34:52Z</time>
      </trkpt>
      <trkpt lat="48.89127" lon="1.94307">
        <ele>188</ele>
        <time>2026-06-01T09:34:56Z</time>
      </trkpt>
      <trkpt lat="48.89101" lon="1.94277">
        <ele>186</ele>
        <time>2026-06-01T09:35:03Z</time>
      </trkpt>
      <trkpt lat="48.89094" lon="1.94275">
        <ele>186</ele>
        <time>2026-06-01T09:35:05Z</time>
      </trkpt>
      <trkpt lat="48.89089" lon="1.94278">
        <ele>185</ele>
        <time>2026-06-01T09:35:06Z</time>
      </trkpt>
      <trkpt lat="48.89071" lon="1.94327">
        <ele>183</ele>
        <time>2026-06-01T09:35:15Z</time>
      </trkpt>
      <trkpt lat="48.89065" lon="1.94336">
        <ele>183</ele>
        <time>2026-06-01T09:35:17Z</time>
      </trkpt>
      <trkpt lat="48.89045" lon="1.94386">
        <ele>183</ele>
        <time>2026-06-01T09:35:26Z</time>
      </trkpt>
      <trkpt lat="48.89042" lon="1.94404">
        <ele>183</ele>
        <time>2026-06-01T09:35:29Z</time>
      </trkpt>
      <trkpt lat="48.89031" lon="1.94426">
        <ele>183</ele>
        <time>2026-06-01T09:35:33Z</time>
      </trkpt>
      <trkpt lat="48.89024" lon="1.94433">
        <ele>183</ele>
        <time>2026-06-01T09:35:35Z</time>
      </trkpt>
      <trkpt lat="48.89023" lon="1.94444">
        <ele>183</ele>
        <time>2026-06-01T09:35:36Z</time>
      </trkpt>
      <trkpt lat="48.89019" lon="1.94453">
        <ele>183</ele>
        <time>2026-06-01T09:35:38Z</time>
      </trkpt>
      <trkpt lat="48.89005" lon="1.94469">
        <ele>183</ele>
        <time>2026-06-01T09:35:42Z</time>
      </trkpt>
      <trkpt lat="48.88996" lon="1.94498">
        <ele>183</ele>
        <time>2026-06-01T09:35:47Z</time>
      </trkpt>
      <trkpt lat="48.88926" lon="1.94603">
        <ele>183</ele>
        <time>2026-06-01T09:36:10Z</time>
      </trkpt>
      <trkpt lat="48.88882" lon="1.94663">
        <ele>183</ele>
        <time>2026-06-01T09:36:24Z</time>
      </trkpt>
      <trkpt lat="48.88851" lon="1.947">
        <ele>183</ele>
        <time>2026-06-01T09:36:33Z</time>
      </trkpt>
      <trkpt lat="48.88819" lon="1.94746">
        <ele>185</ele>
        <time>2026-06-01T09:36:43Z</time>
      </trkpt>
      <trkpt lat="48.88787" lon="1.94781">
        <ele>187</ele>
        <time>2026-06-01T09:36:53Z</time>
      </trkpt>
      <trkpt lat="48.8878" lon="1.94799">
        <ele>188</ele>
        <time>2026-06-01T09:36:56Z</time>
      </trkpt>
      <trkpt lat="48.88792" lon="1.94822">
        <ele>188</ele>
        <time>2026-06-01T09:37:00Z</time>
      </trkpt>
      <trkpt lat="48.88801" lon="1.94857">
        <ele>188</ele>
        <time>2026-06-01T09:37:06Z</time>
      </trkpt>
      <trkpt lat="48.88815" lon="1.94875">
        <ele>187</ele>
        <time>2026-06-01T09:37:10Z</time>
      </trkpt>
      <trkpt lat="48.88817" lon="1.94889">
        <ele>187</ele>
        <time>2026-06-01T09:37:13Z</time>
      </trkpt>
      <trkpt lat="48.88823" lon="1.94902">
        <ele>187</ele>
        <time>2026-06-01T09:37:15Z</time>
      </trkpt>
      <trkpt lat="48.88823" lon="1.94914">
        <ele>187</ele>
        <time>2026-06-01T09:37:17Z</time>
      </trkpt>
      <trkpt lat="48.88806" lon="1.94947">
        <ele>188</ele>
        <time>2026-06-01T09:37:23Z</time>
      </trkpt>
      <trkpt lat="48.88797" lon="1.9498">
        <ele>188</ele>
        <time>2026-06-01T09:37:29Z</time>
      </trkpt>
      <trkpt lat="48.8879" lon="1.94981">
        <ele>189</ele>
        <time>2026-06-01T09:37:30Z</time>
      </trkpt>
      <trkpt lat="48.88784" lon="1.94985">
        <ele>189</ele>
        <time>2026-06-01T09:37:32Z</time>
      </trkpt>
      <trkpt lat="48.88781" lon="1.94995">
        <ele>189</ele>
        <time>2026-06-01T09:37:34Z</time>
      </trkpt>
      <trkpt lat="48.88773" lon="1.94996">
        <ele>190</ele>
        <time>2026-06-01T09:37:35Z</time>
      </trkpt>
      <trkpt lat="48.88758" lon="1.95019">
        <ele>190</ele>
        <time>2026-06-01T09:37:40Z</time>
      </trkpt>
      <trkpt lat="48.88743" lon="1.9506">
        <ele>189</ele>
        <time>2026-06-01T09:37:48Z</time>
      </trkpt>
      <trkpt lat="48.88729" lon="1.95087">
        <ele>188</ele>
        <time>2026-06-01T09:37:53Z</time>
      </trkpt>
      <trkpt lat="48.88725" lon="1.95106">
        <ele>187</ele>
        <time>2026-06-01T09:37:56Z</time>
      </trkpt>
      <trkpt lat="48.88712" lon="1.95123">
        <ele>188</ele>
        <time>2026-06-01T09:38:00Z</time>
      </trkpt>
      <trkpt lat="48.88701" lon="1.95148">
        <ele>187</ele>
        <time>2026-06-01T09:38:05Z</time>
      </trkpt>
      <trkpt lat="48.88697" lon="1.9515">
        <ele>188</ele>
        <time>2026-06-01T09:38:06Z</time>
      </trkpt>
      <trkpt lat="48.88692" lon="1.95149">
        <ele>188</ele>
        <time>2026-06-01T09:38:07Z</time>
      </trkpt>
      <trkpt lat="48.88673" lon="1.95133">
        <ele>189</ele>
        <time>2026-06-01T09:38:12Z</time>
      </trkpt>
      <trkpt lat="48.88644" lon="1.95121">
        <ele>191</ele>
        <time>2026-06-01T09:38:19Z</time>
      </trkpt>
      <trkpt lat="48.88626" lon="1.95106">
        <ele>191</ele>
        <time>2026-06-01T09:38:24Z</time>
      </trkpt>
      <trkpt lat="48.88618" lon="1.95106">
        <ele>192</ele>
        <time>2026-06-01T09:38:26Z</time>
      </trkpt>
      <trkpt lat="48.88613" lon="1.95097">
        <ele>192</ele>
        <time>2026-06-01T09:38:27Z</time>
      </trkpt>
      <trkpt lat="48.88588" lon="1.95085">
        <ele>192</ele>
        <time>2026-06-01T09:38:33Z</time>
      </trkpt>
      <trkpt lat="48.88574" lon="1.95086">
        <ele>192</ele>
        <time>2026-06-01T09:38:37Z</time>
      </trkpt>
      <trkpt lat="48.88567" lon="1.95092">
        <ele>192</ele>
        <time>2026-06-01T09:38:39Z</time>
      </trkpt>
      <trkpt lat="48.88555" lon="1.95116">
        <ele>193</ele>
        <time>2026-06-01T09:38:43Z</time>
      </trkpt>
      <trkpt lat="48.88533" lon="1.9519">
        <ele>194</ele>
        <time>2026-06-01T09:38:56Z</time>
      </trkpt>
      <trkpt lat="48.88521" lon="1.95213">
        <ele>193</ele>
        <time>2026-06-01T09:39:00Z</time>
      </trkpt>
      <trkpt lat="48.88509" lon="1.9523">
        <ele>193</ele>
        <time>2026-06-01T09:39:04Z</time>
      </trkpt>
      <trkpt lat="48.88501" lon="1.95263">
        <ele>193</ele>
        <time>2026-06-01T09:39:09Z</time>
      </trkpt>
      <trkpt lat="48.8849" lon="1.95288">
        <ele>191</ele>
        <time>2026-06-01T09:39:14Z</time>
      </trkpt>
      <trkpt lat="48.88477" lon="1.95338">
        <ele>190</ele>
        <time>2026-06-01T09:39:22Z</time>
      </trkpt>
      <trkpt lat="48.88455" lon="1.95387">
        <ele>190</ele>
        <time>2026-06-01T09:39:31Z</time>
      </trkpt>
      <trkpt lat="48.88439" lon="1.95439">
        <ele>191</ele>
        <time>2026-06-01T09:39:40Z</time>
      </trkpt>
      <trkpt lat="48.88423" lon="1.95474">
        <ele>191</ele>
        <time>2026-06-01T09:39:47Z</time>
      </trkpt>
      <trkpt lat="48.88405" lon="1.95533">
        <ele>189</ele>
        <time>2026-06-01T09:39:57Z</time>
      </trkpt>
      <trkpt lat="48.88395" lon="1.95578">
        <ele>188</ele>
        <time>2026-06-01T09:40:04Z</time>
      </trkpt>
      <trkpt lat="48.88356" lon="1.95662">
        <ele>187</ele>
        <time>2026-06-01T09:40:20Z</time>
      </trkpt>
      <trkpt lat="48.88339" lon="1.95714">
        <ele>186</ele>
        <time>2026-06-01T09:40:29Z</time>
      </trkpt>
      <trkpt lat="48.8832" lon="1.95758">
        <ele>185</ele>
        <time>2026-06-01T09:40:37Z</time>
      </trkpt>
      <trkpt lat="48.88314" lon="1.95765">
        <ele>184</ele>
        <time>2026-06-01T09:40:39Z</time>
      </trkpt>
      <trkpt lat="48.88297" lon="1.95774">
        <ele>183</ele>
        <time>2026-06-01T09:40:43Z</time>
      </trkpt>
      <trkpt lat="48.88294" lon="1.95781">
        <ele>183</ele>
        <time>2026-06-01T09:40:44Z</time>
      </trkpt>
      <trkpt lat="48.88295" lon="1.95788">
        <ele>182</ele>
        <time>2026-06-01T09:40:45Z</time>
      </trkpt>
      <trkpt lat="48.88303" lon="1.95802">
        <ele>182</ele>
        <time>2026-06-01T09:40:48Z</time>
      </trkpt>
      <trkpt lat="48.88313" lon="1.95829">
        <ele>181</ele>
        <time>2026-06-01T09:40:53Z</time>
      </trkpt>
      <trkpt lat="48.88356" lon="1.95869">
        <ele>178</ele>
        <time>2026-06-01T09:41:05Z</time>
      </trkpt>
      <trkpt lat="48.88398" lon="1.95901">
        <ele>177</ele>
        <time>2026-06-01T09:41:16Z</time>
      </trkpt>
      <trkpt lat="48.88419" lon="1.95936">
        <ele>176</ele>
        <time>2026-06-01T09:41:23Z</time>
      </trkpt>
      <trkpt lat="48.88439" lon="1.95983">
        <ele>175</ele>
        <time>2026-06-01T09:41:31Z</time>
      </trkpt>
      <trkpt lat="48.88466" lon="1.96024">
        <ele>176</ele>
        <time>2026-06-01T09:41:40Z</time>
      </trkpt>
      <trkpt lat="48.88487" lon="1.96051">
        <ele>176</ele>
        <time>2026-06-01T09:41:47Z</time>
      </trkpt>
      <trkpt lat="48.88532" lon="1.96098">
        <ele>177</ele>
        <time>2026-06-01T09:42:00Z</time>
      </trkpt>
      <trkpt lat="48.88552" lon="1.96124">
        <ele>178</ele>
        <time>2026-06-01T09:42:06Z</time>
      </trkpt>
      <trkpt lat="48.88652" lon="1.96297">
        <ele>178</ele>
        <time>2026-06-01T09:42:41Z</time>
      </trkpt>
      <trkpt lat="48.88692" lon="1.96377">
        <ele>178</ele>
        <time>2026-06-01T09:42:56Z</time>
      </trkpt>
      <trkpt lat="48.88722" lon="1.96449">
        <ele>177</ele>
        <time>2026-06-01T09:43:10Z</time>
      </trkpt>
      <trkpt lat="48.88765" lon="1.96562">
        <ele>177</ele>
        <time>2026-06-01T09:43:30Z</time>
      </trkpt>
      <trkpt lat="48.88767" lon="1.96572">
        <ele>177</ele>
        <time>2026-06-01T09:43:31Z</time>
      </trkpt>
      <trkpt lat="48.88725" lon="1.96638">
        <ele>177</ele>
        <time>2026-06-01T09:43:45Z</time>
      </trkpt>
      <trkpt lat="48.88691" lon="1.96686">
        <ele>177</ele>
        <time>2026-06-01T09:43:56Z</time>
      </trkpt>
      <trkpt lat="48.88646" lon="1.96748">
        <ele>178</ele>
        <time>2026-06-01T09:44:10Z</time>
      </trkpt>
      <trkpt lat="48.88614" lon="1.96787">
        <ele>178</ele>
        <time>2026-06-01T09:44:20Z</time>
      </trkpt>
      <trkpt lat="48.8858" lon="1.9682">
        <ele>177</ele>
        <time>2026-06-01T09:44:29Z</time>
      </trkpt>
      <trkpt lat="48.88482" lon="1.96901">
        <ele>179</ele>
        <time>2026-06-01T09:44:55Z</time>
      </trkpt>
      <trkpt lat="48.88464" lon="1.9691">
        <ele>179</ele>
        <time>2026-06-01T09:45:00Z</time>
      </trkpt>
      <trkpt lat="48.88432" lon="1.96917">
        <ele>180</ele>
        <time>2026-06-01T09:45:07Z</time>
      </trkpt>
      <trkpt lat="48.88424" lon="1.96928">
        <ele>180</ele>
        <time>2026-06-01T09:45:10Z</time>
      </trkpt>
      <trkpt lat="48.88425" lon="1.96939">
        <ele>179</ele>
        <time>2026-06-01T09:45:12Z</time>
      </trkpt>
      <trkpt lat="48.88434" lon="1.96964">
        <ele>178</ele>
        <time>2026-06-01T09:45:16Z</time>
      </trkpt>
      <trkpt lat="48.88457" lon="1.97063">
        <ele>177</ele>
        <time>2026-06-01T09:45:32Z</time>
      </trkpt>
      <trkpt lat="48.88462" lon="1.97095">
        <ele>177</ele>
        <time>2026-06-01T09:45:37Z</time>
      </trkpt>
      <trkpt lat="48.8846" lon="1.97147">
        <ele>176</ele>
        <time>2026-06-01T09:45:45Z</time>
      </trkpt>
      <trkpt lat="48.88452" lon="1.97215">
        <ele>177</ele>
        <time>2026-06-01T09:45:56Z</time>
      </trkpt>
      <trkpt lat="48.88441" lon="1.97273">
        <ele>177</ele>
        <time>2026-06-01T09:46:05Z</time>
      </trkpt>
      <trkpt lat="48.88315" lon="1.9775">
        <ele>176</ele>
        <time>2026-06-01T09:47:24Z</time>
      </trkpt>
      <trkpt lat="48.88312" lon="1.97776">
        <ele>177</ele>
        <time>2026-06-01T09:47:28Z</time>
      </trkpt>
      <trkpt lat="48.88385" lon="1.9809">
        <ele>176</ele>
        <time>2026-06-01T09:48:19Z</time>
      </trkpt>
      <trkpt lat="48.88398" lon="1.98134">
        <ele>176</ele>
        <time>2026-06-01T09:48:27Z</time>
      </trkpt>
      <trkpt lat="48.88427" lon="1.98204">
        <ele>175</ele>
        <time>2026-06-01T09:48:39Z</time>
      </trkpt>
      <trkpt lat="48.88424" lon="1.9822">
        <ele>175</ele>
        <time>2026-06-01T09:48:42Z</time>
      </trkpt>
      <trkpt lat="48.88407" lon="1.98243">
        <ele>175</ele>
        <time>2026-06-01T09:48:47Z</time>
      </trkpt>
      <trkpt lat="48.88405" lon="1.98254">
        <ele>176</ele>
        <time>2026-06-01T09:48:49Z</time>
      </trkpt>
      <trkpt lat="48.88407" lon="1.98266">
        <ele>175</ele>
        <time>2026-06-01T09:48:51Z</time>
      </trkpt>
      <trkpt lat="48.88416" lon="1.98277">
        <ele>175</ele>
        <time>2026-06-01T09:48:53Z</time>
      </trkpt>
      <trkpt lat="48.88417" lon="1.98293">
        <ele>175</ele>
        <time>2026-06-01T09:48:56Z</time>
      </trkpt>
      <trkpt lat="48.8842" lon="1.983">
        <ele>175</ele>
        <time>2026-06-01T09:48:57Z</time>
      </trkpt>
      <trkpt lat="48.88474" lon="1.98354">
        <ele>173</ele>
        <time>2026-06-01T09:49:12Z</time>
      </trkpt>
      <trkpt lat="48.88536" lon="1.98408">
        <ele>171</ele>
        <time>2026-06-01T09:49:29Z</time>
      </trkpt>
      <trkpt lat="48.88542" lon="1.98419">
        <ele>171</ele>
        <time>2026-06-01T09:49:31Z</time>
      </trkpt>
      <trkpt lat="48.88542" lon="1.98426">
        <ele>171</ele>
        <time>2026-06-01T09:49:32Z</time>
      </trkpt>
      <trkpt lat="48.8849" lon="1.98579">
        <ele>171</ele>
        <time>2026-06-01T09:49:59Z</time>
      </trkpt>
      <trkpt lat="48.88475" lon="1.9863">
        <ele>173</ele>
        <time>2026-06-01T09:50:07Z</time>
      </trkpt>
      <trkpt lat="48.88468" lon="1.98645">
        <ele>174</ele>
        <time>2026-06-01T09:50:10Z</time>
      </trkpt>
      <trkpt lat="48.88423" lon="1.98797">
        <ele>178</ele>
        <time>2026-06-01T09:50:36Z</time>
      </trkpt>
      <trkpt lat="48.88413" lon="1.98823">
        <ele>177</ele>
        <time>2026-06-01T09:50:40Z</time>
      </trkpt>
      <trkpt lat="48.88402" lon="1.98862">
        <ele>177</ele>
        <time>2026-06-01T09:50:47Z</time>
      </trkpt>
      <trkpt lat="48.88396" lon="1.98869">
        <ele>177</ele>
        <time>2026-06-01T09:50:49Z</time>
      </trkpt>
      <trkpt lat="48.8839" lon="1.98895">
        <ele>177</ele>
        <time>2026-06-01T09:50:53Z</time>
      </trkpt>
      <trkpt lat="48.88406" lon="1.98921">
        <ele>176</ele>
        <time>2026-06-01T09:50:58Z</time>
      </trkpt>
      <trkpt lat="48.88413" lon="1.98946">
        <ele>176</ele>
        <time>2026-06-01T09:51:03Z</time>
      </trkpt>
      <trkpt lat="48.88438" lon="1.98978">
        <ele>177</ele>
        <time>2026-06-01T09:51:10Z</time>
      </trkpt>
      <trkpt lat="48.88467" lon="1.99006">
        <ele>177</ele>
        <time>2026-06-01T09:51:18Z</time>
      </trkpt>
      <trkpt lat="48.88524" lon="1.99044">
        <ele>177</ele>
        <time>2026-06-01T09:51:33Z</time>
      </trkpt>
      <trkpt lat="48.88541" lon="1.99061">
        <ele>178</ele>
        <time>2026-06-01T09:51:37Z</time>
      </trkpt>
      <trkpt lat="48.88557" lon="1.99094">
        <ele>180</ele>
        <time>2026-06-01T09:51:44Z</time>
      </trkpt>
      <trkpt lat="48.88568" lon="1.99128">
        <ele>181</ele>
        <time>2026-06-01T09:51:50Z</time>
      </trkpt>
      <trkpt lat="48.88595" lon="1.99192">
        <ele>181</ele>
        <time>2026-06-01T09:52:01Z</time>
      </trkpt>
      <trkpt lat="48.88634" lon="1.99253">
        <ele>181</ele>
        <time>2026-06-01T09:52:14Z</time>
      </trkpt>
      <trkpt lat="48.88686" lon="1.99358">
        <ele>180</ele>
        <time>2026-06-01T09:52:34Z</time>
      </trkpt>
      <trkpt lat="48.88715" lon="1.99399">
        <ele>180</ele>
        <time>2026-06-01T09:52:44Z</time>
      </trkpt>
      <trkpt lat="48.88732" lon="1.99418">
        <ele>179</ele>
        <time>2026-06-01T09:52:49Z</time>
      </trkpt>
      <trkpt lat="48.88754" lon="1.99475">
        <ele>179</ele>
        <time>2026-06-01T09:52:59Z</time>
      </trkpt>
      <trkpt lat="48.88786" lon="1.99546">
        <ele>177</ele>
        <time>2026-06-01T09:53:12Z</time>
      </trkpt>
      <trkpt lat="48.88807" lon="1.99582">
        <ele>177</ele>
        <time>2026-06-01T09:53:19Z</time>
      </trkpt>
      <trkpt lat="48.88849" lon="1.99641">
        <ele>175</ele>
        <time>2026-06-01T09:53:33Z</time>
      </trkpt>
      <trkpt lat="48.88866" lon="1.9967">
        <ele>174</ele>
        <time>2026-06-01T09:53:39Z</time>
      </trkpt>
      <trkpt lat="48.88884" lon="1.99733">
        <ele>174</ele>
        <time>2026-06-01T09:53:49Z</time>
      </trkpt>
      <trkpt lat="48.88931" lon="1.99976">
        <ele>172</ele>
        <time>2026-06-01T09:54:28Z</time>
      </trkpt>
      <trkpt lat="48.88932" lon="1.99994">
        <ele>172</ele>
        <time>2026-06-01T09:54:31Z</time>
      </trkpt>
      <trkpt lat="48.88965" lon="2.00147">
        <ele>171</ele>
        <time>2026-06-01T09:54:56Z</time>
      </trkpt>
      <trkpt lat="48.88971" lon="2.00188">
        <ele>172</ele>
        <time>2026-06-01T09:55:02Z</time>
      </trkpt>
      <trkpt lat="48.88971" lon="2.00216">
        <ele>172</ele>
        <time>2026-06-01T09:55:06Z</time>
      </trkpt>
      <trkpt lat="48.88964" lon="2.00245">
        <ele>173</ele>
        <time>2026-06-01T09:55:11Z</time>
      </trkpt>
      <trkpt lat="48.88906" lon="2.00377">
        <ele>177</ele>
        <time>2026-06-01T09:55:36Z</time>
      </trkpt>
      <trkpt lat="48.88891" lon="2.00406">
        <ele>177</ele>
        <time>2026-06-01T09:55:41Z</time>
      </trkpt>
      <trkpt lat="48.88867" lon="2.00469">
        <ele>177</ele>
        <time>2026-06-01T09:55:52Z</time>
      </trkpt>
      <trkpt lat="48.88837" lon="2.00536">
        <ele>176</ele>
        <time>2026-06-01T09:56:05Z</time>
      </trkpt>
      <trkpt lat="48.88808" lon="2.00612">
        <ele>176</ele>
        <time>2026-06-01T09:56:18Z</time>
      </trkpt>
      <trkpt lat="48.88641" lon="2.01006">
        <ele>177</ele>
        <time>2026-06-01T09:57:30Z</time>
      </trkpt>
      <trkpt lat="48.88631" lon="2.01047">
        <ele>179</ele>
        <time>2026-06-01T09:57:37Z</time>
      </trkpt>
      <trkpt lat="48.88626" lon="2.0108">
        <ele>180</ele>
        <time>2026-06-01T09:57:42Z</time>
      </trkpt>
      <trkpt lat="48.88616" lon="2.01279">
        <ele>171</ele>
        <time>2026-06-01T09:58:13Z</time>
      </trkpt>
      <trkpt lat="48.88612" lon="2.01306">
        <ele>170</ele>
        <time>2026-06-01T09:58:17Z</time>
      </trkpt>
      <trkpt lat="48.88607" lon="2.01321">
        <ele>169</ele>
        <time>2026-06-01T09:58:20Z</time>
      </trkpt>
      <trkpt lat="48.88583" lon="2.01359">
        <ele>168</ele>
        <time>2026-06-01T09:58:28Z</time>
      </trkpt>
      <trkpt lat="48.88492" lon="2.0144">
        <ele>177</ele>
        <time>2026-06-01T09:58:52Z</time>
      </trkpt>
      <trkpt lat="48.88453" lon="2.01485">
        <ele>178</ele>
        <time>2026-06-01T09:59:04Z</time>
      </trkpt>
      <trkpt lat="48.88449" lon="2.01493">
        <ele>179</ele>
        <time>2026-06-01T09:59:05Z</time>
      </trkpt>
      <trkpt lat="48.88449" lon="2.01501">
        <ele>178</ele>
        <time>2026-06-01T09:59:07Z</time>
      </trkpt>
      <trkpt lat="48.88453" lon="2.01506">
        <ele>178</ele>
        <time>2026-06-01T09:59:08Z</time>
      </trkpt>
      <trkpt lat="48.88478" lon="2.01515">
        <ele>177</ele>
        <time>2026-06-01T09:59:14Z</time>
      </trkpt>
      <trkpt lat="48.88502" lon="2.01528">
        <ele>175</ele>
        <time>2026-06-01T09:59:20Z</time>
      </trkpt>
      <trkpt lat="48.8852" lon="2.01544">
        <ele>175</ele>
        <time>2026-06-01T09:59:25Z</time>
      </trkpt>
      <trkpt lat="48.88537" lon="2.01567">
        <ele>174</ele>
        <time>2026-06-01T09:59:30Z</time>
      </trkpt>
      <trkpt lat="48.88556" lon="2.01599">
        <ele>174</ele>
        <time>2026-06-01T09:59:37Z</time>
      </trkpt>
      <trkpt lat="48.88572" lon="2.0164">
        <ele>173</ele>
        <time>2026-06-01T09:59:44Z</time>
      </trkpt>
      <trkpt lat="48.88607" lon="2.01712">
        <ele>168</ele>
        <time>2026-06-01T09:59:58Z</time>
      </trkpt>
      <trkpt lat="48.88631" lon="2.0177">
        <ele>163</ele>
        <time>2026-06-01T10:00:08Z</time>
      </trkpt>
      <trkpt lat="48.88646" lon="2.01791">
        <ele>160</ele>
        <time>2026-06-01T10:00:13Z</time>
      </trkpt>
      <trkpt lat="48.8871" lon="2.01839">
        <ele>153</ele>
        <time>2026-06-01T10:00:30Z</time>
      </trkpt>
      <trkpt lat="48.88756" lon="2.01878">
        <ele>149</ele>
        <time>2026-06-01T10:00:42Z</time>
      </trkpt>
      <trkpt lat="48.8877" lon="2.01899">
        <ele>148</ele>
        <time>2026-06-01T10:00:47Z</time>
      </trkpt>
      <trkpt lat="48.88793" lon="2.01919">
        <ele>146</ele>
        <time>2026-06-01T10:00:53Z</time>
      </trkpt>
      <trkpt lat="48.88806" lon="2.01967">
        <ele>143</ele>
        <time>2026-06-01T10:01:01Z</time>
      </trkpt>
      <trkpt lat="48.88814" lon="2.0198">
        <ele>142</ele>
        <time>2026-06-01T10:01:03Z</time>
      </trkpt>
      <trkpt lat="48.88817" lon="2.01996">
        <ele>141</ele>
        <time>2026-06-01T10:01:06Z</time>
      </trkpt>
      <trkpt lat="48.88836" lon="2.02028">
        <ele>138</ele>
        <time>2026-06-01T10:01:13Z</time>
      </trkpt>
      <trkpt lat="48.88877" lon="2.02063">
        <ele>134</ele>
        <time>2026-06-01T10:01:24Z</time>
      </trkpt>
      <trkpt lat="48.88901" lon="2.02087">
        <ele>132</ele>
        <time>2026-06-01T10:01:30Z</time>
      </trkpt>
      <trkpt lat="48.8898" lon="2.02148">
        <ele>125</ele>
        <time>2026-06-01T10:01:51Z</time>
      </trkpt>
      <trkpt lat="48.88994" lon="2.02157">
        <ele>125</ele>
        <time>2026-06-01T10:01:55Z</time>
      </trkpt>
      <trkpt lat="48.89035" lon="2.02174">
        <ele>121</ele>
        <time>2026-06-01T10:02:04Z</time>
      </trkpt>
      <trkpt lat="48.89054" lon="2.02177">
        <ele>120</ele>
        <time>2026-06-01T10:02:09Z</time>
      </trkpt>
      <trkpt lat="48.89115" lon="2.02165">
        <ele>117</ele>
        <time>2026-06-01T10:02:23Z</time>
      </trkpt>
      <trkpt lat="48.89217" lon="2.02161">
        <ele>115</ele>
        <time>2026-06-01T10:02:47Z</time>
      </trkpt>
      <trkpt lat="48.89262" lon="2.02171">
        <ele>118</ele>
        <time>2026-06-01T10:02:58Z</time>
      </trkpt>
      <trkpt lat="48.89275" lon="2.02186">
        <ele>120</ele>
        <time>2026-06-01T10:03:02Z</time>
      </trkpt>
      <trkpt lat="48.89332" lon="2.0227">
        <ele>128</ele>
        <time>2026-06-01T10:03:20Z</time>
      </trkpt>
      <trkpt lat="48.89395" lon="2.02421">
        <ele>138</ele>
        <time>2026-06-01T10:03:48Z</time>
      </trkpt>
      <trkpt lat="48.89408" lon="2.02474">
        <ele>137</ele>
        <time>2026-06-01T10:03:56Z</time>
      </trkpt>
      <trkpt lat="48.89406" lon="2.02488">
        <ele>136</ele>
        <time>2026-06-01T10:03:58Z</time>
      </trkpt>
      <trkpt lat="48.89393" lon="2.02495">
        <ele>133</ele>
        <time>2026-06-01T10:04:02Z</time>
      </trkpt>
      <trkpt lat="48.89355" lon="2.02506">
        <ele>125</ele>
        <time>2026-06-01T10:04:11Z</time>
      </trkpt>
      <trkpt lat="48.8932" lon="2.02512">
        <ele>120</ele>
        <time>2026-06-01T10:04:19Z</time>
      </trkpt>
      <trkpt lat="48.89306" lon="2.02511">
        <ele>118</ele>
        <time>2026-06-01T10:04:22Z</time>
      </trkpt>
      <trkpt lat="48.89282" lon="2.02525">
        <ele>116</ele>
        <time>2026-06-01T10:04:28Z</time>
      </trkpt>
      <trkpt lat="48.89261" lon="2.02527">
        <ele>113</ele>
        <time>2026-06-01T10:04:33Z</time>
      </trkpt>
      <trkpt lat="48.89254" lon="2.02535">
        <ele>112</ele>
        <time>2026-06-01T10:04:35Z</time>
      </trkpt>
      <trkpt lat="48.89258" lon="2.0256">
        <ele>114</ele>
        <time>2026-06-01T10:04:39Z</time>
      </trkpt>
      <trkpt lat="48.89286" lon="2.0266">
        <ele>114</ele>
        <time>2026-06-01T10:04:56Z</time>
      </trkpt>
      <trkpt lat="48.89295" lon="2.02706">
        <ele>113</ele>
        <time>2026-06-01T10:05:03Z</time>
      </trkpt>
      <trkpt lat="48.89307" lon="2.02745">
        <ele>113</ele>
        <time>2026-06-01T10:05:10Z</time>
      </trkpt>
      <trkpt lat="48.89307" lon="2.0276">
        <ele>112</ele>
        <time>2026-06-01T10:05:12Z</time>
      </trkpt>
      <trkpt lat="48.89302" lon="2.02784">
        <ele>112</ele>
        <time>2026-06-01T10:05:16Z</time>
      </trkpt>
      <trkpt lat="48.89257" lon="2.02803">
        <ele>106</ele>
        <time>2026-06-01T10:05:27Z</time>
      </trkpt>
      <trkpt lat="48.89253" lon="2.02812">
        <ele>106</ele>
        <time>2026-06-01T10:05:28Z</time>
      </trkpt>
      <trkpt lat="48.89256" lon="2.02829">
        <ele>107</ele>
        <time>2026-06-01T10:05:31Z</time>
      </trkpt>
      <trkpt lat="48.89268" lon="2.02865">
        <ele>107</ele>
        <time>2026-06-01T10:05:37Z</time>
      </trkpt>
      <trkpt lat="48.89291" lon="2.02988">
        <ele>105</ele>
        <time>2026-06-01T10:05:57Z</time>
      </trkpt>
      <trkpt lat="48.89322" lon="2.03101">
        <ele>103</ele>
        <time>2026-06-01T10:06:16Z</time>
      </trkpt>
      <trkpt lat="48.89327" lon="2.03243">
        <ele>100</ele>
        <time>2026-06-01T10:06:38Z</time>
      </trkpt>
      <trkpt lat="48.89335" lon="2.03383">
        <ele>97</ele>
        <time>2026-06-01T10:06:59Z</time>
      </trkpt>
      <trkpt lat="48.89335" lon="2.03481">
        <ele>98</ele>
        <time>2026-06-01T10:07:14Z</time>
      </trkpt>
      <trkpt lat="48.89331" lon="2.03572">
        <ele>96</ele>
        <time>2026-06-01T10:07:28Z</time>
      </trkpt>
      <trkpt lat="48.89332" lon="2.0361">
        <ele>96</ele>
        <time>2026-06-01T10:07:34Z</time>
      </trkpt>
      <trkpt lat="48.89354" lon="2.03684">
        <ele>96</ele>
        <time>2026-06-01T10:07:47Z</time>
      </trkpt>
      <trkpt lat="48.8939" lon="2.03761">
        <ele>95</ele>
        <time>2026-06-01T10:08:01Z</time>
      </trkpt>
      <trkpt lat="48.8941" lon="2.03845">
        <ele>96</ele>
        <time>2026-06-01T10:08:15Z</time>
      </trkpt>
      <trkpt lat="48.89418" lon="2.03862">
        <ele>97</ele>
        <time>2026-06-01T10:08:18Z</time>
      </trkpt>
      <trkpt lat="48.89453" lon="2.03915">
        <ele>97</ele>
        <time>2026-06-01T10:08:30Z</time>
      </trkpt>
      <trkpt lat="48.89487" lon="2.03977">
        <ele>97</ele>
        <time>2026-06-01T10:08:42Z</time>
      </trkpt>
      <trkpt lat="48.89522" lon="2.04021">
        <ele>98</ele>
        <time>2026-06-01T10:08:53Z</time>
      </trkpt>
      <trkpt lat="48.89589" lon="2.04119">
        <ele>98</ele>
        <time>2026-06-01T10:09:14Z</time>
      </trkpt>
      <trkpt lat="48.8961" lon="2.04157">
        <ele>97</ele>
        <time>2026-06-01T10:09:22Z</time>
      </trkpt>
      <trkpt lat="48.89638" lon="2.042">
        <ele>94</ele>
        <time>2026-06-01T10:09:31Z</time>
      </trkpt>
      <trkpt lat="48.89661" lon="2.0426">
        <ele>92</ele>
        <time>2026-06-01T10:09:42Z</time>
      </trkpt>
      <trkpt lat="48.89667" lon="2.0427">
        <ele>92</ele>
        <time>2026-06-01T10:09:44Z</time>
      </trkpt>
      <trkpt lat="48.8968" lon="2.04283">
        <ele>91</ele>
        <time>2026-06-01T10:09:48Z</time>
      </trkpt>
      <trkpt lat="48.89687" lon="2.04295">
        <ele>91</ele>
        <time>2026-06-01T10:09:50Z</time>
      </trkpt>
      <trkpt lat="48.89699" lon="2.04327">
        <ele>91</ele>
        <time>2026-06-01T10:09:56Z</time>
      </trkpt>
      <trkpt lat="48.89722" lon="2.04411">
        <ele>90</ele>
        <time>2026-06-01T10:10:10Z</time>
      </trkpt>
      <trkpt lat="48.89737" lon="2.04455">
        <ele>89</ele>
        <time>2026-06-01T10:10:17Z</time>
      </trkpt>
      <trkpt lat="48.89768" lon="2.04603">
        <ele>89</ele>
        <time>2026-06-01T10:10:41Z</time>
      </trkpt>
      <trkpt lat="48.89787" lon="2.04662">
        <ele>89</ele>
        <time>2026-06-01T10:10:51Z</time>
      </trkpt>
      <trkpt lat="48.89799" lon="2.04691">
        <ele>89</ele>
        <time>2026-06-01T10:10:56Z</time>
      </trkpt>
      <trkpt lat="48.89832" lon="2.04724">
        <ele>88</ele>
        <time>2026-06-01T10:11:06Z</time>
      </trkpt>
      <trkpt lat="48.89842" lon="2.04737">
        <ele>88</ele>
        <time>2026-06-01T10:11:09Z</time>
      </trkpt>
      <trkpt lat="48.89872" lon="2.04807">
        <ele>87</ele>
        <time>2026-06-01T10:11:22Z</time>
      </trkpt>
      <trkpt lat="48.89888" lon="2.04871">
        <ele>85</ele>
        <time>2026-06-01T10:11:32Z</time>
      </trkpt>
      <trkpt lat="48.89894" lon="2.04923">
        <ele>84</ele>
        <time>2026-06-01T10:11:40Z</time>
      </trkpt>
      <trkpt lat="48.89893" lon="2.04956">
        <ele>84</ele>
        <time>2026-06-01T10:11:45Z</time>
      </trkpt>
      <trkpt lat="48.89887" lon="2.04993">
        <ele>84</ele>
        <time>2026-06-01T10:11:51Z</time>
      </trkpt>
      <trkpt lat="48.89887" lon="2.05006">
        <ele>84</ele>
        <time>2026-06-01T10:11:53Z</time>
      </trkpt>
      <trkpt lat="48.89895" lon="2.05016">
        <ele>84</ele>
        <time>2026-06-01T10:11:56Z</time>
      </trkpt>
      <trkpt lat="48.89932" lon="2.05043">
        <ele>88</ele>
        <time>2026-06-01T10:12:05Z</time>
      </trkpt>
      <trkpt lat="48.89941" lon="2.05054">
        <ele>90</ele>
        <time>2026-06-01T10:12:08Z</time>
      </trkpt>
      <trkpt lat="48.89946" lon="2.0507">
        <ele>91</ele>
        <time>2026-06-01T10:12:11Z</time>
      </trkpt>
      <trkpt lat="48.89934" lon="2.05213">
        <ele>94</ele>
        <time>2026-06-01T10:12:33Z</time>
      </trkpt>
      <trkpt lat="48.89931" lon="2.0523">
        <ele>94</ele>
        <time>2026-06-01T10:12:35Z</time>
      </trkpt>
      <trkpt lat="48.89926" lon="2.05234">
        <ele>94</ele>
        <time>2026-06-01T10:12:37Z</time>
      </trkpt>
      <trkpt lat="48.89923" lon="2.05241">
        <ele>94</ele>
        <time>2026-06-01T10:12:38Z</time>
      </trkpt>
      <trkpt lat="48.89922" lon="2.05274">
        <ele>95</ele>
        <time>2026-06-01T10:12:43Z</time>
      </trkpt>
      <trkpt lat="48.89914" lon="2.05305">
        <ele>95</ele>
        <time>2026-06-01T10:12:48Z</time>
      </trkpt>
      <trkpt lat="48.8991" lon="2.05347">
        <ele>95</ele>
        <time>2026-06-01T10:12:55Z</time>
      </trkpt>
      <trkpt lat="48.89911" lon="2.05359">
        <ele>96</ele>
        <time>2026-06-01T10:12:56Z</time>
      </trkpt>
      <trkpt lat="48.89915" lon="2.05368">
        <ele>97</ele>
        <time>2026-06-01T10:12:58Z</time>
      </trkpt>
      <trkpt lat="48.89921" lon="2.05373">
        <ele>98</ele>
        <time>2026-06-01T10:13:00Z</time>
      </trkpt>
      <trkpt lat="48.89943" lon="2.05381">
        <ele>98</ele>
        <time>2026-06-01T10:13:05Z</time>
      </trkpt>
      <trkpt lat="48.89949" lon="2.0539">
        <ele>99</ele>
        <time>2026-06-01T10:13:07Z</time>
      </trkpt>
      <trkpt lat="48.89931" lon="2.0549">
        <ele>99</ele>
        <time>2026-06-01T10:13:23Z</time>
      </trkpt>
      <trkpt lat="48.8993" lon="2.05525">
        <ele>99</ele>
        <time>2026-06-01T10:13:28Z</time>
      </trkpt>
      <trkpt lat="48.89947" lon="2.05559">
        <ele>98</ele>
        <time>2026-06-01T10:13:35Z</time>
      </trkpt>
      <trkpt lat="48.89978" lon="2.05601">
        <ele>97</ele>
        <time>2026-06-01T10:13:45Z</time>
      </trkpt>
      <trkpt lat="48.90162" lon="2.05957">
        <ele>87</ele>
        <time>2026-06-01T10:14:54Z</time>
      </trkpt>
      <trkpt lat="48.90189" lon="2.06017">
        <ele>86</ele>
        <time>2026-06-01T10:15:05Z</time>
      </trkpt>
      <trkpt lat="48.90205" lon="2.0603">
        <ele>84</ele>
        <time>2026-06-01T10:15:09Z</time>
      </trkpt>
      <trkpt lat="48.90211" lon="2.06045">
        <ele>83</ele>
        <time>2026-06-01T10:15:12Z</time>
      </trkpt>
      <trkpt lat="48.90211" lon="2.06058">
        <ele>83</ele>
        <time>2026-06-01T10:15:14Z</time>
      </trkpt>
      <trkpt lat="48.90214" lon="2.0607">
        <ele>83</ele>
        <time>2026-06-01T10:15:16Z</time>
      </trkpt>
      <trkpt lat="48.90236" lon="2.0612">
        <ele>80</ele>
        <time>2026-06-01T10:15:25Z</time>
      </trkpt>
      <trkpt lat="48.90368" lon="2.06372">
        <ele>79</ele>
        <time>2026-06-01T10:16:15Z</time>
      </trkpt>
      <trkpt lat="48.9038" lon="2.06385">
        <ele>79</ele>
        <time>2026-06-01T10:16:18Z</time>
      </trkpt>
      <trkpt lat="48.90404" lon="2.06389">
        <ele>81</ele>
        <time>2026-06-01T10:16:24Z</time>
      </trkpt>
      <trkpt lat="48.90483" lon="2.06379">
        <ele>82</ele>
        <time>2026-06-01T10:16:42Z</time>
      </trkpt>
      <trkpt lat="48.90513" lon="2.06378">
        <ele>81</ele>
        <time>2026-06-01T10:16:49Z</time>
      </trkpt>
      <trkpt lat="48.90537" lon="2.06373">
        <ele>79</ele>
        <time>2026-06-01T10:16:55Z</time>
      </trkpt>
      <trkpt lat="48.90719" lon="2.06351">
        <ele>78</ele>
        <time>2026-06-01T10:17:38Z</time>
      </trkpt>
      <trkpt lat="48.90787" lon="2.06345">
        <ele>79</ele>
        <time>2026-06-01T10:17:54Z</time>
      </trkpt>
      <trkpt lat="48.90905" lon="2.06328">
        <ele>78</ele>
        <time>2026-06-01T10:18:21Z</time>
      </trkpt>
      <trkpt lat="48.9099" lon="2.06319">
        <ele>74</ele>
        <time>2026-06-01T10:18:41Z</time>
      </trkpt>
      <trkpt lat="48.91029" lon="2.06324">
        <ele>73</ele>
        <time>2026-06-01T10:18:50Z</time>
      </trkpt>
      <trkpt lat="48.9104" lon="2.06323">
        <ele>73</ele>
        <time>2026-06-01T10:18:53Z</time>
      </trkpt>
      <trkpt lat="48.91064" lon="2.06314">
        <ele>72</ele>
        <time>2026-06-01T10:18:59Z</time>
      </trkpt>
      <trkpt lat="48.9113" lon="2.06275">
        <ele>70</ele>
        <time>2026-06-01T10:19:15Z</time>
      </trkpt>
      <trkpt lat="48.91156" lon="2.06263">
        <ele>70</ele>
        <time>2026-06-01T10:19:22Z</time>
      </trkpt>
      <trkpt lat="48.91195" lon="2.06234">
        <ele>72</ele>
        <time>2026-06-01T10:19:32Z</time>
      </trkpt>
      <trkpt lat="48.91238" lon="2.06207">
        <ele>74</ele>
        <time>2026-06-01T10:19:43Z</time>
      </trkpt>
      <trkpt lat="48.91299" lon="2.06174">
        <ele>74</ele>
        <time>2026-06-01T10:19:58Z</time>
      </trkpt>
      <trkpt lat="48.91374" lon="2.06127">
        <ele>74</ele>
        <time>2026-06-01T10:20:17Z</time>
      </trkpt>
      <trkpt lat="48.91383" lon="2.06125">
        <ele>74</ele>
        <time>2026-06-01T10:20:19Z</time>
      </trkpt>
      <trkpt lat="48.91387" lon="2.06127">
        <ele>74</ele>
        <time>2026-06-01T10:20:20Z</time>
      </trkpt>
      <trkpt lat="48.91395" lon="2.06137">
        <ele>74</ele>
        <time>2026-06-01T10:20:22Z</time>
      </trkpt>
      <trkpt lat="48.91435" lon="2.06236">
        <ele>77</ele>
        <time>2026-06-01T10:20:40Z</time>
      </trkpt>
      <trkpt lat="48.91446" lon="2.06317">
        <ele>79</ele>
        <time>2026-06-01T10:20:53Z</time>
      </trkpt>
      <trkpt lat="48.91499" lon="2.06393">
        <ele>76</ele>
        <time>2026-06-01T10:21:10Z</time>
      </trkpt>
      <trkpt lat="48.91513" lon="2.06419">
        <ele>76</ele>
        <time>2026-06-01T10:21:15Z</time>
      </trkpt>
      <trkpt lat="48.91564" lon="2.06539">
        <ele>76</ele>
        <time>2026-06-01T10:21:37Z</time>
      </trkpt>
      <trkpt lat="48.91578" lon="2.06566">
        <ele>76</ele>
        <time>2026-06-01T10:21:42Z</time>
      </trkpt>
      <trkpt lat="48.91592" lon="2.0661">
        <ele>75</ele>
        <time>2026-06-01T10:21:50Z</time>
      </trkpt>
      <trkpt lat="48.91598" lon="2.0662">
        <ele>75</ele>
        <time>2026-06-01T10:21:52Z</time>
      </trkpt>
      <trkpt lat="48.91655" lon="2.06756">
        <ele>80</ele>
        <time>2026-06-01T10:22:16Z</time>
      </trkpt>
      <trkpt lat="48.91699" lon="2.06869">
        <ele>82</ele>
        <time>2026-06-01T10:22:37Z</time>
      </trkpt>
      <trkpt lat="48.91723" lon="2.06918">
        <ele>83</ele>
        <time>2026-06-01T10:22:46Z</time>
      </trkpt>
      <trkpt lat="48.91747" lon="2.06979">
        <ele>83</ele>
        <time>2026-06-01T10:22:57Z</time>
      </trkpt>
      <trkpt lat="48.91765" lon="2.07014">
        <ele>83</ele>
        <time>2026-06-01T10:23:04Z</time>
      </trkpt>
      <trkpt lat="48.91765" lon="2.07018">
        <ele>83</ele>
        <time>2026-06-01T10:23:04Z</time>
      </trkpt>
      <trkpt lat="48.9176" lon="2.07023">
        <ele>83</ele>
        <time>2026-06-01T10:23:06Z</time>
      </trkpt>
      <trkpt lat="48.91712" lon="2.07051">
        <ele>82</ele>
        <time>2026-06-01T10:23:18Z</time>
      </trkpt>
      <trkpt lat="48.91603" lon="2.07093">
        <ele>80</ele>
        <time>2026-06-01T10:23:44Z</time>
      </trkpt>
      <trkpt lat="48.91596" lon="2.07097">
        <ele>80</ele>
        <time>2026-06-01T10:23:46Z</time>
      </trkpt>
      <trkpt lat="48.91593" lon="2.07105">
        <ele>79</ele>
        <time>2026-06-01T10:23:47Z</time>
      </trkpt>
      <trkpt lat="48.916" lon="2.07128">
        <ele>79</ele>
        <time>2026-06-01T10:23:51Z</time>
      </trkpt>
      <trkpt lat="48.91724" lon="2.07393">
        <ele>80</ele>
        <time>2026-06-01T10:24:41Z</time>
      </trkpt>
      <trkpt lat="48.9175" lon="2.07457">
        <ele>79</ele>
        <time>2026-06-01T10:24:52Z</time>
      </trkpt>
      <trkpt lat="48.91757" lon="2.07466">
        <ele>78</ele>
        <time>2026-06-01T10:24:55Z</time>
      </trkpt>
      <trkpt lat="48.91781" lon="2.07476">
        <ele>79</ele>
        <time>2026-06-01T10:25:00Z</time>
      </trkpt>
      <trkpt lat="48.91879" lon="2.07526">
        <ele>79</ele>
        <time>2026-06-01T10:25:25Z</time>
      </trkpt>
      <trkpt lat="48.91906" lon="2.07537">
        <ele>80</ele>
        <time>2026-06-01T10:25:31Z</time>
      </trkpt>
      <trkpt lat="48.91924" lon="2.07548">
        <ele>79</ele>
        <time>2026-06-01T10:25:36Z</time>
      </trkpt>
      <trkpt lat="48.91995" lon="2.0758">
        <ele>81</ele>
        <time>2026-06-01T10:25:53Z</time>
      </trkpt>
      <trkpt lat="48.92016" lon="2.07593">
        <ele>81</ele>
        <time>2026-06-01T10:25:58Z</time>
      </trkpt>
      <trkpt lat="48.92025" lon="2.07594">
        <ele>81</ele>
        <time>2026-06-01T10:26:00Z</time>
      </trkpt>
      <trkpt lat="48.92059" lon="2.07609">
        <ele>80</ele>
        <time>2026-06-01T10:26:09Z</time>
      </trkpt>
      <trkpt lat="48.92149" lon="2.07652">
        <ele>77</ele>
        <time>2026-06-01T10:26:31Z</time>
      </trkpt>
      <trkpt lat="48.92223" lon="2.07694">
        <ele>79</ele>
        <time>2026-06-01T10:26:49Z</time>
      </trkpt>
      <trkpt lat="48.92235" lon="2.07696">
        <ele>79</ele>
        <time>2026-06-01T10:26:52Z</time>
      </trkpt>
      <trkpt lat="48.92258" lon="2.07708">
        <ele>80</ele>
        <time>2026-06-01T10:26:58Z</time>
      </trkpt>
      <trkpt lat="48.92272" lon="2.0772">
        <ele>79</ele>
        <time>2026-06-01T10:27:01Z</time>
      </trkpt>
      <trkpt lat="48.92276" lon="2.07732">
        <ele>79</ele>
        <time>2026-06-01T10:27:03Z</time>
      </trkpt>
      <trkpt lat="48.92258" lon="2.08042">
        <ele>76</ele>
        <time>2026-06-01T10:27:51Z</time>
      </trkpt>
      <trkpt lat="48.92242" lon="2.08237">
        <ele>77</ele>
        <time>2026-06-01T10:28:21Z</time>
      </trkpt>
      <trkpt lat="48.92237" lon="2.08336">
        <ele>76</ele>
        <time>2026-06-01T10:28:37Z</time>
      </trkpt>
      <trkpt lat="48.92229" lon="2.08413">
        <ele>75</ele>
        <time>2026-06-01T10:28:48Z</time>
      </trkpt>
      <trkpt lat="48.92225" lon="2.08425">
        <ele>75</ele>
        <time>2026-06-01T10:28:51Z</time>
      </trkpt>
      <trkpt lat="48.92217" lon="2.08429">
        <ele>74</ele>
        <time>2026-06-01T10:28:53Z</time>
      </trkpt>
      <trkpt lat="48.92209" lon="2.0844">
        <ele>75</ele>
        <time>2026-06-01T10:28:55Z</time>
      </trkpt>
      <trkpt lat="48.922" lon="2.08446">
        <ele>75</ele>
        <time>2026-06-01T10:28:57Z</time>
      </trkpt>
      <trkpt lat="48.92159" lon="2.08462">
        <ele>75</ele>
        <time>2026-06-01T10:29:07Z</time>
      </trkpt>
      <trkpt lat="48.92145" lon="2.08471">
        <ele>75</ele>
        <time>2026-06-01T10:29:11Z</time>
      </trkpt>
      <trkpt lat="48.92063" lon="2.08512">
        <ele>77</ele>
        <time>2026-06-01T10:29:31Z</time>
      </trkpt>
      <trkpt lat="48.91999" lon="2.0854">
        <ele>78</ele>
        <time>2026-06-01T10:29:46Z</time>
      </trkpt>
      <trkpt lat="48.91926" lon="2.08578">
        <ele>79</ele>
        <time>2026-06-01T10:30:04Z</time>
      </trkpt>
      <trkpt lat="48.91902" lon="2.08587">
        <ele>79</ele>
        <time>2026-06-01T10:30:10Z</time>
      </trkpt>
      <trkpt lat="48.91748" lon="2.08665">
        <ele>79</ele>
        <time>2026-06-01T10:30:48Z</time>
      </trkpt>
      <trkpt lat="48.91645" lon="2.08709">
        <ele>80</ele>
        <time>2026-06-01T10:31:13Z</time>
      </trkpt>
      <trkpt lat="48.91603" lon="2.08733">
        <ele>80</ele>
        <time>2026-06-01T10:31:24Z</time>
      </trkpt>
      <trkpt lat="48.91577" lon="2.08744">
        <ele>80</ele>
        <time>2026-06-01T10:31:30Z</time>
      </trkpt>
      <trkpt lat="48.91507" lon="2.08783">
        <ele>79</ele>
        <time>2026-06-01T10:31:47Z</time>
      </trkpt>
      <trkpt lat="48.91504" lon="2.08786">
        <ele>79</ele>
        <time>2026-06-01T10:31:48Z</time>
      </trkpt>
      <trkpt lat="48.915" lon="2.088">
        <ele>80</ele>
        <time>2026-06-01T10:31:51Z</time>
      </trkpt>
      <trkpt lat="48.91495" lon="2.08806">
        <ele>80</ele>
        <time>2026-06-01T10:31:52Z</time>
      </trkpt>
      <trkpt lat="48.91466" lon="2.08819">
        <ele>79</ele>
        <time>2026-06-01T10:31:59Z</time>
      </trkpt>
      <trkpt lat="48.91457" lon="2.08816">
        <ele>79</ele>
        <time>2026-06-01T10:32:01Z</time>
      </trkpt>
      <trkpt lat="48.91445" lon="2.0882">
        <ele>79</ele>
        <time>2026-06-01T10:32:04Z</time>
      </trkpt>
      <trkpt lat="48.91302" lon="2.08887">
        <ele>82</ele>
        <time>2026-06-01T10:32:39Z</time>
      </trkpt>
      <trkpt lat="48.91281" lon="2.08894">
        <ele>82</ele>
        <time>2026-06-01T10:32:44Z</time>
      </trkpt>
      <trkpt lat="48.91211" lon="2.08926">
        <ele>83</ele>
        <time>2026-06-01T10:33:01Z</time>
      </trkpt>
      <trkpt lat="48.91184" lon="2.08944">
        <ele>83</ele>
        <time>2026-06-01T10:33:08Z</time>
      </trkpt>
      <trkpt lat="48.91178" lon="2.08944">
        <ele>83</ele>
        <time>2026-06-01T10:33:09Z</time>
      </trkpt>
      <trkpt lat="48.91171" lon="2.08936">
        <ele>83</ele>
        <time>2026-06-01T10:33:11Z</time>
      </trkpt>
      <trkpt lat="48.91164" lon="2.08937">
        <ele>83</ele>
        <time>2026-06-01T10:33:13Z</time>
      </trkpt>
      <trkpt lat="48.91145" lon="2.08947">
        <ele>82</ele>
        <time>2026-06-01T10:33:18Z</time>
      </trkpt>
      <trkpt lat="48.91129" lon="2.08942">
        <ele>82</ele>
        <time>2026-06-01T10:33:22Z</time>
      </trkpt>
      <trkpt lat="48.91105" lon="2.08943">
        <ele>81</ele>
        <time>2026-06-01T10:33:27Z</time>
      </trkpt>
      <trkpt lat="48.91096" lon="2.08938">
        <ele>81</ele>
        <time>2026-06-01T10:33:29Z</time>
      </trkpt>
      <trkpt lat="48.91053" lon="2.08877">
        <ele>81</ele>
        <time>2026-06-01T10:33:43Z</time>
      </trkpt>
      <trkpt lat="48.91026" lon="2.08847">
        <ele>81</ele>
        <time>2026-06-01T10:33:51Z</time>
      </trkpt>
      <trkpt lat="48.91011" lon="2.08819">
        <ele>82</ele>
        <time>2026-06-01T10:33:57Z</time>
      </trkpt>
      <trkpt lat="48.90978" lon="2.08787">
        <ele>83</ele>
        <time>2026-06-01T10:34:06Z</time>
      </trkpt>
      <trkpt lat="48.90923" lon="2.08726">
        <ele>85</ele>
        <time>2026-06-01T10:34:22Z</time>
      </trkpt>
      <trkpt lat="48.9091" lon="2.08704">
        <ele>85</ele>
        <time>2026-06-01T10:34:26Z</time>
      </trkpt>
      <trkpt lat="48.90907" lon="2.08701">
        <ele>85</ele>
        <time>2026-06-01T10:34:27Z</time>
      </trkpt>
      <trkpt lat="48.90901" lon="2.08701">
        <ele>85</ele>
        <time>2026-06-01T10:34:28Z</time>
      </trkpt>
      <trkpt lat="48.90894" lon="2.08711">
        <ele>85</ele>
        <time>2026-06-01T10:34:31Z</time>
      </trkpt>
      <trkpt lat="48.90817" lon="2.08779">
        <ele>85</ele>
        <time>2026-06-01T10:34:51Z</time>
      </trkpt>
      <trkpt lat="48.90811" lon="2.08788">
        <ele>84</ele>
        <time>2026-06-01T10:34:53Z</time>
      </trkpt>
      <trkpt lat="48.90806" lon="2.08801">
        <ele>84</ele>
        <time>2026-06-01T10:34:56Z</time>
      </trkpt>
      <trkpt lat="48.90788" lon="2.08832">
        <ele>82</ele>
        <time>2026-06-01T10:35:02Z</time>
      </trkpt>
      <trkpt lat="48.90785" lon="2.08842">
        <ele>82</ele>
        <time>2026-06-01T10:35:04Z</time>
      </trkpt>
      <trkpt lat="48.90782" lon="2.0889">
        <ele>83</ele>
        <time>2026-06-01T10:35:11Z</time>
      </trkpt>
      <trkpt lat="48.90773" lon="2.08909">
        <ele>83</ele>
        <time>2026-06-01T10:35:15Z</time>
      </trkpt>
      <trkpt lat="48.90761" lon="2.0895">
        <ele>82</ele>
        <time>2026-06-01T10:35:22Z</time>
      </trkpt>
      <trkpt lat="48.90749" lon="2.08974">
        <ele>82</ele>
        <time>2026-06-01T10:35:26Z</time>
      </trkpt>
      <trkpt lat="48.90744" lon="2.08975">
        <ele>82</ele>
        <time>2026-06-01T10:35:27Z</time>
      </trkpt>
      <trkpt lat="48.90737" lon="2.08972">
        <ele>82</ele>
        <time>2026-06-01T10:35:29Z</time>
      </trkpt>
      <trkpt lat="48.90718" lon="2.08958">
        <ele>81</ele>
        <time>2026-06-01T10:35:34Z</time>
      </trkpt>
      <trkpt lat="48.90693" lon="2.08944">
        <ele>80</ele>
        <time>2026-06-01T10:35:40Z</time>
      </trkpt>
      <trkpt lat="48.90668" lon="2.08924">
        <ele>79</ele>
        <time>2026-06-01T10:35:47Z</time>
      </trkpt>
      <trkpt lat="48.90626" lon="2.08898">
        <ele>81</ele>
        <time>2026-06-01T10:35:57Z</time>
      </trkpt>
      <trkpt lat="48.90618" lon="2.08899">
        <ele>81</ele>
        <time>2026-06-01T10:35:59Z</time>
      </trkpt>
      <trkpt lat="48.90602" lon="2.08917">
        <ele>81</ele>
        <time>2026-06-01T10:36:04Z</time>
      </trkpt>
      <trkpt lat="48.90593" lon="2.08924">
        <ele>82</ele>
        <time>2026-06-01T10:36:06Z</time>
      </trkpt>
      <trkpt lat="48.90571" lon="2.08934">
        <ele>82</ele>
        <time>2026-06-01T10:36:12Z</time>
      </trkpt>
      <trkpt lat="48.90558" lon="2.08948">
        <ele>82</ele>
        <time>2026-06-01T10:36:15Z</time>
      </trkpt>
      <trkpt lat="48.90502" lon="2.09043">
        <ele>82</ele>
        <time>2026-06-01T10:36:35Z</time>
      </trkpt>
      <trkpt lat="48.90485" lon="2.09083">
        <ele>82</ele>
        <time>2026-06-01T10:36:42Z</time>
      </trkpt>
      <trkpt lat="48.90468" lon="2.09106">
        <ele>83</ele>
        <time>2026-06-01T10:36:48Z</time>
      </trkpt>
      <trkpt lat="48.9043" lon="2.09171">
        <ele>85</ele>
        <time>2026-06-01T10:37:01Z</time>
      </trkpt>
      <trkpt lat="48.90374" lon="2.09274">
        <ele>83</ele>
        <time>2026-06-01T10:37:21Z</time>
      </trkpt>
      <trkpt lat="48.90368" lon="2.09294">
        <ele>82</ele>
        <time>2026-06-01T10:37:25Z</time>
      </trkpt>
      <trkpt lat="48.90348" lon="2.09328">
        <ele>81</ele>
        <time>2026-06-01T10:37:32Z</time>
      </trkpt>
      <trkpt lat="48.90279" lon="2.09359">
        <ele>84</ele>
        <time>2026-06-01T10:37:49Z</time>
      </trkpt>
      <trkpt lat="48.90254" lon="2.09378">
        <ele>84</ele>
        <time>2026-06-01T10:37:55Z</time>
      </trkpt>
      <trkpt lat="48.90166" lon="2.09419">
        <ele>84</ele>
        <time>2026-06-01T10:38:17Z</time>
      </trkpt>
      <trkpt lat="48.90153" lon="2.09436">
        <ele>83</ele>
        <time>2026-06-01T10:38:21Z</time>
      </trkpt>
      <trkpt lat="48.90152" lon="2.09445">
        <ele>83</ele>
        <time>2026-06-01T10:38:22Z</time>
      </trkpt>
      <trkpt lat="48.90155" lon="2.09456">
        <ele>82</ele>
        <time>2026-06-01T10:38:24Z</time>
      </trkpt>
      <trkpt lat="48.90151" lon="2.09464">
        <ele>82</ele>
        <time>2026-06-01T10:38:25Z</time>
      </trkpt>
      <trkpt lat="48.90115" lon="2.09481">
        <ele>83</ele>
        <time>2026-06-01T10:38:34Z</time>
      </trkpt>
      <trkpt lat="48.90098" lon="2.09485">
        <ele>84</ele>
        <time>2026-06-01T10:38:38Z</time>
      </trkpt>
      <trkpt lat="48.90089" lon="2.09493">
        <ele>84</ele>
        <time>2026-06-01T10:38:41Z</time>
      </trkpt>
      <trkpt lat="48.90075" lon="2.09493">
        <ele>84</ele>
        <time>2026-06-01T10:38:44Z</time>
      </trkpt>
      <trkpt lat="48.90057" lon="2.09478">
        <ele>85</ele>
        <time>2026-06-01T10:38:49Z</time>
      </trkpt>
      <trkpt lat="48.90046" lon="2.09473">
        <ele>86</ele>
        <time>2026-06-01T10:38:51Z</time>
      </trkpt>
      <trkpt lat="48.90026" lon="2.09473">
        <ele>87</ele>
        <time>2026-06-01T10:38:56Z</time>
      </trkpt>
      <trkpt lat="48.90007" lon="2.09463">
        <ele>88</ele>
        <time>2026-06-01T10:39:01Z</time>
      </trkpt>
      <trkpt lat="48.89993" lon="2.09463">
        <ele>88</ele>
        <time>2026-06-01T10:39:04Z</time>
      </trkpt>
      <trkpt lat="48.89976" lon="2.09469">
        <ele>88</ele>
        <time>2026-06-01T10:39:08Z</time>
      </trkpt>
      <trkpt lat="48.89888" lon="2.09516">
        <ele>88</ele>
        <time>2026-06-01T10:39:30Z</time>
      </trkpt>
      <trkpt lat="48.89883" lon="2.09524">
        <ele>89</ele>
        <time>2026-06-01T10:39:32Z</time>
      </trkpt>
      <trkpt lat="48.89874" lon="2.09514">
        <ele>89</ele>
        <time>2026-06-01T10:39:34Z</time>
      </trkpt>
      <trkpt lat="48.89865" lon="2.09511">
        <ele>89</ele>
        <time>2026-06-01T10:39:36Z</time>
      </trkpt>
      <trkpt lat="48.89837" lon="2.09532">
        <ele>90</ele>
        <time>2026-06-01T10:39:44Z</time>
      </trkpt>
      <trkpt lat="48.89828" lon="2.0955">
        <ele>90</ele>
        <time>2026-06-01T10:39:47Z</time>
      </trkpt>
      <trkpt lat="48.89829" lon="2.09587">
        <ele>89</ele>
        <time>2026-06-01T10:39:53Z</time>
      </trkpt>
      <trkpt lat="48.89835" lon="2.09619">
        <ele>90</ele>
        <time>2026-06-01T10:39:58Z</time>
      </trkpt>
      <trkpt lat="48.89842" lon="2.0964">
        <ele>90</ele>
        <time>2026-06-01T10:40:02Z</time>
      </trkpt>
      <trkpt lat="48.89844" lon="2.09662">
        <ele>91</ele>
        <time>2026-06-01T10:40:05Z</time>
      </trkpt>
      <trkpt lat="48.89851" lon="2.09695">
        <ele>91</ele>
        <time>2026-06-01T10:40:10Z</time>
      </trkpt>
      <trkpt lat="48.89855" lon="2.09734">
        <ele>91</ele>
        <time>2026-06-01T10:40:16Z</time>
      </trkpt>
      <trkpt lat="48.89857" lon="2.09831">
        <ele>89</ele>
        <time>2026-06-01T10:40:31Z</time>
      </trkpt>
      <trkpt lat="48.89859" lon="2.09839">
        <ele>89</ele>
        <time>2026-06-01T10:40:33Z</time>
      </trkpt>
      <trkpt lat="48.89871" lon="2.09861">
        <ele>89</ele>
        <time>2026-06-01T10:40:37Z</time>
      </trkpt>
      <trkpt lat="48.89875" lon="2.09876">
        <ele>89</ele>
        <time>2026-06-01T10:40:39Z</time>
      </trkpt>
      <trkpt lat="48.89881" lon="2.10056">
        <ele>84</ele>
        <time>2026-06-01T10:41:07Z</time>
      </trkpt>
      <trkpt lat="48.89889" lon="2.10076">
        <ele>83</ele>
        <time>2026-06-01T10:41:11Z</time>
      </trkpt>
      <trkpt lat="48.899" lon="2.10087">
        <ele>81</ele>
        <time>2026-06-01T10:41:14Z</time>
      </trkpt>
      <trkpt lat="48.89905" lon="2.10089">
        <ele>80</ele>
        <time>2026-06-01T10:41:15Z</time>
      </trkpt>
      <trkpt lat="48.89919" lon="2.10085">
        <ele>81</ele>
        <time>2026-06-01T10:41:18Z</time>
      </trkpt>
      <trkpt lat="48.89934" lon="2.10088">
        <ele>81</ele>
        <time>2026-06-01T10:41:22Z</time>
      </trkpt>
      <trkpt lat="48.8996" lon="2.10087">
        <ele>81</ele>
        <time>2026-06-01T10:41:28Z</time>
      </trkpt>
      <trkpt lat="48.89973" lon="2.10084">
        <ele>82</ele>
        <time>2026-06-01T10:41:31Z</time>
      </trkpt>
      <trkpt lat="48.90044" lon="2.10084">
        <ele>83</ele>
        <time>2026-06-01T10:41:48Z</time>
      </trkpt>
      <trkpt lat="48.90062" lon="2.10088">
        <ele>83</ele>
        <time>2026-06-01T10:41:52Z</time>
      </trkpt>
      <trkpt lat="48.90099" lon="2.10104">
        <ele>82</ele>
        <time>2026-06-01T10:42:01Z</time>
      </trkpt>
      <trkpt lat="48.90125" lon="2.10106">
        <ele>82</ele>
        <time>2026-06-01T10:42:07Z</time>
      </trkpt>
      <trkpt lat="48.90143" lon="2.10111">
        <ele>82</ele>
        <time>2026-06-01T10:42:11Z</time>
      </trkpt>
      <trkpt lat="48.90198" lon="2.1014">
        <ele>80</ele>
        <time>2026-06-01T10:42:25Z</time>
      </trkpt>
      <trkpt lat="48.90457" lon="2.10265">
        <ele>70</ele>
        <time>2026-06-01T10:43:28Z</time>
      </trkpt>
      <trkpt lat="48.91249" lon="2.10659">
        <ele>63</ele>
        <time>2026-06-01T10:46:43Z</time>
      </trkpt>
      <trkpt lat="48.91344" lon="2.10704">
        <ele>64</ele>
        <time>2026-06-01T10:47:06Z</time>
      </trkpt>
      <trkpt lat="48.91796" lon="2.1093">
        <ele>68</ele>
        <time>2026-06-01T10:48:57Z</time>
      </trkpt>
      <trkpt lat="48.91825" lon="2.10958">
        <ele>68</ele>
        <time>2026-06-01T10:49:05Z</time>
      </trkpt>
      <trkpt lat="48.91848" lon="2.10998">
        <ele>67</ele>
        <time>2026-06-01T10:49:13Z</time>
      </trkpt>
      <trkpt lat="48.91861" lon="2.1101">
        <ele>66</ele>
        <time>2026-06-01T10:49:17Z</time>
      </trkpt>
      <trkpt lat="48.91875" lon="2.11015">
        <ele>66</ele>
        <time>2026-06-01T10:49:20Z</time>
      </trkpt>
      <trkpt lat="48.9189" lon="2.11013">
        <ele>67</ele>
        <time>2026-06-01T10:49:24Z</time>
      </trkpt>
      <trkpt lat="48.91905" lon="2.10999">
        <ele>68</ele>
        <time>2026-06-01T10:49:28Z</time>
      </trkpt>
      <trkpt lat="48.91915" lon="2.10978">
        <ele>68</ele>
        <time>2026-06-01T10:49:32Z</time>
      </trkpt>
      <trkpt lat="48.9192" lon="2.10955">
        <ele>67</ele>
        <time>2026-06-01T10:49:36Z</time>
      </trkpt>
      <trkpt lat="48.91918" lon="2.10932">
        <ele>67</ele>
        <time>2026-06-01T10:49:39Z</time>
      </trkpt>
      <trkpt lat="48.91911" lon="2.10911">
        <ele>67</ele>
        <time>2026-06-01T10:49:43Z</time>
      </trkpt>
      <trkpt lat="48.91898" lon="2.10895">
        <ele>67</ele>
        <time>2026-06-01T10:49:47Z</time>
      </trkpt>
      <trkpt lat="48.91853" lon="2.10858">
        <ele>70</ele>
        <time>2026-06-01T10:49:59Z</time>
      </trkpt>
      <trkpt lat="48.91845" lon="2.10843">
        <ele>71</ele>
        <time>2026-06-01T10:50:02Z</time>
      </trkpt>
      <trkpt lat="48.91842" lon="2.10825">
        <ele>72</ele>
        <time>2026-06-01T10:50:04Z</time>
      </trkpt>
      <trkpt lat="48.91833" lon="2.108">
        <ele>74</ele>
        <time>2026-06-01T10:50:09Z</time>
      </trkpt>
      <trkpt lat="48.91843" lon="2.10706">
        <ele>73</ele>
        <time>2026-06-01T10:50:23Z</time>
      </trkpt>
      <trkpt lat="48.9186" lon="2.10591">
        <ele>64</ele>
        <time>2026-06-01T10:50:41Z</time>
      </trkpt>
      <trkpt lat="48.91879" lon="2.10413">
        <ele>61</ele>
        <time>2026-06-01T10:51:09Z</time>
      </trkpt>
      <trkpt lat="48.91887" lon="2.10365">
        <ele>62</ele>
        <time>2026-06-01T10:51:17Z</time>
      </trkpt>
      <trkpt lat="48.91891" lon="2.10357">
        <ele>62</ele>
        <time>2026-06-01T10:51:18Z</time>
      </trkpt>
      <trkpt lat="48.91905" lon="2.10358">
        <ele>62</ele>
        <time>2026-06-01T10:51:22Z</time>
      </trkpt>
      <trkpt lat="48.91962" lon="2.10386">
        <ele>63</ele>
        <time>2026-06-01T10:51:36Z</time>
      </trkpt>
      <trkpt lat="48.92076" lon="2.10477">
        <ele>68</ele>
        <time>2026-06-01T10:52:06Z</time>
      </trkpt>
      <trkpt lat="48.92103" lon="2.10501">
        <ele>70</ele>
        <time>2026-06-01T10:52:13Z</time>
      </trkpt>
      <trkpt lat="48.92177" lon="2.10556">
        <ele>72</ele>
        <time>2026-06-01T10:52:32Z</time>
      </trkpt>
      <trkpt lat="48.92228" lon="2.10601">
        <ele>74</ele>
        <time>2026-06-01T10:52:46Z</time>
      </trkpt>
      <trkpt lat="48.92284" lon="2.10644">
        <ele>76</ele>
        <time>2026-06-01T10:53:01Z</time>
      </trkpt>
      <trkpt lat="48.92299" lon="2.10659">
        <ele>76</ele>
        <time>2026-06-01T10:53:05Z</time>
      </trkpt>
      <trkpt lat="48.92377" lon="2.10717">
        <ele>78</ele>
        <time>2026-06-01T10:53:25Z</time>
      </trkpt>
      <trkpt lat="48.92396" lon="2.10735">
        <ele>77</ele>
        <time>2026-06-01T10:53:30Z</time>
      </trkpt>
      <trkpt lat="48.92418" lon="2.10749">
        <ele>77</ele>
        <time>2026-06-01T10:53:36Z</time>
      </trkpt>
      <trkpt lat="48.92439" lon="2.10769">
        <ele>76</ele>
        <time>2026-06-01T10:53:42Z</time>
      </trkpt>
      <trkpt lat="48.92609" lon="2.10906">
        <ele>70</ele>
        <time>2026-06-01T10:54:26Z</time>
      </trkpt>
      <trkpt lat="48.92652" lon="2.10945">
        <ele>71</ele>
        <time>2026-06-01T10:54:38Z</time>
      </trkpt>
      <trkpt lat="48.92713" lon="2.10991">
        <ele>71</ele>
        <time>2026-06-01T10:54:54Z</time>
      </trkpt>
      <trkpt lat="48.92758" lon="2.11031">
        <ele>72</ele>
        <time>2026-06-01T10:55:06Z</time>
      </trkpt>
      <trkpt lat="48.9282" lon="2.11076">
        <ele>68</ele>
        <time>2026-06-01T10:55:22Z</time>
      </trkpt>
      <trkpt lat="48.92842" lon="2.11097">
        <ele>67</ele>
        <time>2026-06-01T10:55:28Z</time>
      </trkpt>
      <trkpt lat="48.92855" lon="2.11106">
        <ele>67</ele>
        <time>2026-06-01T10:55:32Z</time>
      </trkpt>
      <trkpt lat="48.9287" lon="2.11131">
        <ele>68</ele>
        <time>2026-06-01T10:55:37Z</time>
      </trkpt>
      <trkpt lat="48.92872" lon="2.11139">
        <ele>68</ele>
        <time>2026-06-01T10:55:38Z</time>
      </trkpt>
      <trkpt lat="48.92884" lon="2.11158">
        <ele>68</ele>
        <time>2026-06-01T10:55:42Z</time>
      </trkpt>
      <trkpt lat="48.92894" lon="2.1118">
        <ele>69</ele>
        <time>2026-06-01T10:55:46Z</time>
      </trkpt>
      <trkpt lat="48.92909" lon="2.112">
        <ele>70</ele>
        <time>2026-06-01T10:55:51Z</time>
      </trkpt>
      <trkpt lat="48.92923" lon="2.11226">
        <ele>71</ele>
        <time>2026-06-01T10:55:56Z</time>
      </trkpt>
      <trkpt lat="48.92954" lon="2.11272">
        <ele>74</ele>
        <time>2026-06-01T10:56:06Z</time>
      </trkpt>
      <trkpt lat="48.9299" lon="2.11334">
        <ele>76</ele>
        <time>2026-06-01T10:56:19Z</time>
      </trkpt>
      <trkpt lat="48.9301" lon="2.11375">
        <ele>77</ele>
        <time>2026-06-01T10:56:27Z</time>
      </trkpt>
      <trkpt lat="48.93057" lon="2.11458">
        <ele>77</ele>
        <time>2026-06-01T10:56:44Z</time>
      </trkpt>
      <trkpt lat="48.93066" lon="2.11497">
        <ele>76</ele>
        <time>2026-06-01T10:56:50Z</time>
      </trkpt>
      <trkpt lat="48.93071" lon="2.11538">
        <ele>76</ele>
        <time>2026-06-01T10:56:56Z</time>
      </trkpt>
      <trkpt lat="48.93089" lon="2.11626">
        <ele>76</ele>
        <time>2026-06-01T10:57:10Z</time>
      </trkpt>
      <trkpt lat="48.93101" lon="2.11717">
        <ele>75</ele>
        <time>2026-06-01T10:57:25Z</time>
      </trkpt>
      <trkpt lat="48.93114" lon="2.1177">
        <ele>74</ele>
        <time>2026-06-01T10:57:33Z</time>
      </trkpt>
      <trkpt lat="48.93117" lon="2.11802">
        <ele>74</ele>
        <time>2026-06-01T10:57:38Z</time>
      </trkpt>
      <trkpt lat="48.93121" lon="2.11813">
        <ele>74</ele>
        <time>2026-06-01T10:57:40Z</time>
      </trkpt>
      <trkpt lat="48.9314" lon="2.11821">
        <ele>75</ele>
        <time>2026-06-01T10:57:45Z</time>
      </trkpt>
      <trkpt lat="48.9317" lon="2.11819">
        <ele>75</ele>
        <time>2026-06-01T10:57:52Z</time>
      </trkpt>
      <trkpt lat="48.93181" lon="2.11825">
        <ele>75</ele>
        <time>2026-06-01T10:57:55Z</time>
      </trkpt>
      <trkpt lat="48.93197" lon="2.11829">
        <ele>75</ele>
        <time>2026-06-01T10:57:58Z</time>
      </trkpt>
      <trkpt lat="48.93216" lon="2.1183">
        <ele>74</ele>
        <time>2026-06-01T10:58:03Z</time>
      </trkpt>
      <trkpt lat="48.93236" lon="2.11836">
        <ele>74</ele>
        <time>2026-06-01T10:58:08Z</time>
      </trkpt>
      <trkpt lat="48.93295" lon="2.11835">
        <ele>74</ele>
        <time>2026-06-01T10:58:21Z</time>
      </trkpt>
      <trkpt lat="48.93304" lon="2.11837">
        <ele>74</ele>
        <time>2026-06-01T10:58:24Z</time>
      </trkpt>
      <trkpt lat="48.93342" lon="2.11837">
        <ele>74</ele>
        <time>2026-06-01T10:58:32Z</time>
      </trkpt>
      <trkpt lat="48.93354" lon="2.11841">
        <ele>74</ele>
        <time>2026-06-01T10:58:35Z</time>
      </trkpt>
      <trkpt lat="48.93379" lon="2.11842">
        <ele>74</ele>
        <time>2026-06-01T10:58:41Z</time>
      </trkpt>
      <trkpt lat="48.93416" lon="2.11848">
        <ele>74</ele>
        <time>2026-06-01T10:58:50Z</time>
      </trkpt>
      <trkpt lat="48.93443" lon="2.11848">
        <ele>74</ele>
        <time>2026-06-01T10:58:56Z</time>
      </trkpt>
      <trkpt lat="48.93454" lon="2.11856">
        <ele>73</ele>
        <time>2026-06-01T10:58:59Z</time>
      </trkpt>
      <trkpt lat="48.93464" lon="2.11877">
        <ele>73</ele>
        <time>2026-06-01T10:59:03Z</time>
      </trkpt>
      <trkpt lat="48.93507" lon="2.11992">
        <ele>71</ele>
        <time>2026-06-01T10:59:23Z</time>
      </trkpt>
      <trkpt lat="48.93541" lon="2.12102">
        <ele>67</ele>
        <time>2026-06-01T10:59:42Z</time>
      </trkpt>
      <trkpt lat="48.93547" lon="2.12115">
        <ele>67</ele>
        <time>2026-06-01T10:59:44Z</time>
      </trkpt>
      <trkpt lat="48.93573" lon="2.12154">
        <ele>68</ele>
        <time>2026-06-01T10:59:53Z</time>
      </trkpt>
      <trkpt lat="48.93585" lon="2.12167">
        <ele>68</ele>
        <time>2026-06-01T10:59:56Z</time>
      </trkpt>
      <trkpt lat="48.93606" lon="2.12203">
        <ele>66</ele>
        <time>2026-06-01T11:00:04Z</time>
      </trkpt>
      <trkpt lat="48.93634" lon="2.12241">
        <ele>65</ele>
        <time>2026-06-01T11:00:12Z</time>
      </trkpt>
      <trkpt lat="48.93644" lon="2.12264">
        <ele>65</ele>
        <time>2026-06-01T11:00:17Z</time>
      </trkpt>
      <trkpt lat="48.9365" lon="2.12304">
        <ele>65</ele>
        <time>2026-06-01T11:00:23Z</time>
      </trkpt>
      <trkpt lat="48.9365" lon="2.1233">
        <ele>64</ele>
        <time>2026-06-01T11:00:27Z</time>
      </trkpt>
      <trkpt lat="48.93642" lon="2.12459">
        <ele>63</ele>
        <time>2026-06-01T11:00:47Z</time>
      </trkpt>
      <trkpt lat="48.93644" lon="2.12476">
        <ele>63</ele>
        <time>2026-06-01T11:00:49Z</time>
      </trkpt>
      <trkpt lat="48.93649" lon="2.12485">
        <ele>63</ele>
        <time>2026-06-01T11:00:51Z</time>
      </trkpt>
      <trkpt lat="48.93673" lon="2.12501">
        <ele>63</ele>
        <time>2026-06-01T11:00:57Z</time>
      </trkpt>
      <trkpt lat="48.93801" lon="2.12605">
        <ele>61</ele>
        <time>2026-06-01T11:01:31Z</time>
      </trkpt>
      <trkpt lat="48.93972" lon="2.12733">
        <ele>57</ele>
        <time>2026-06-01T11:02:16Z</time>
      </trkpt>
      <trkpt lat="48.93994" lon="2.12753">
        <ele>57</ele>
        <time>2026-06-01T11:02:22Z</time>
      </trkpt>
      <trkpt lat="48.94048" lon="2.1279">
        <ele>56</ele>
        <time>2026-06-01T11:02:36Z</time>
      </trkpt>
      <trkpt lat="48.94073" lon="2.12812">
        <ele>56</ele>
        <time>2026-06-01T11:02:42Z</time>
      </trkpt>
      <trkpt lat="48.94141" lon="2.12858">
        <ele>56</ele>
        <time>2026-06-01T11:03:00Z</time>
      </trkpt>
      <trkpt lat="48.9419" lon="2.12899">
        <ele>56</ele>
        <time>2026-06-01T11:03:13Z</time>
      </trkpt>
      <trkpt lat="48.94253" lon="2.12945">
        <ele>56</ele>
        <time>2026-06-01T11:03:29Z</time>
      </trkpt>
      <trkpt lat="48.94312" lon="2.12994">
        <ele>54</ele>
        <time>2026-06-01T11:03:45Z</time>
      </trkpt>
      <trkpt lat="48.94344" lon="2.13014">
        <ele>53</ele>
        <time>2026-06-01T11:03:53Z</time>
      </trkpt>
      <trkpt lat="48.9435" lon="2.13024">
        <ele>53</ele>
        <time>2026-06-01T11:03:55Z</time>
      </trkpt>
      <trkpt lat="48.94346" lon="2.13003">
        <ele>53</ele>
        <time>2026-06-01T11:03:58Z</time>
      </trkpt>
      <trkpt lat="48.94348" lon="2.12998">
        <ele>53</ele>
        <time>2026-06-01T11:03:59Z</time>
      </trkpt>
      <trkpt lat="48.94357" lon="2.12991">
        <ele>53</ele>
        <time>2026-06-01T11:04:02Z</time>
      </trkpt>
      <trkpt lat="48.94359" lon="2.12984">
        <ele>53</ele>
        <time>2026-06-01T11:04:03Z</time>
      </trkpt>
      <trkpt lat="48.94351" lon="2.12943">
        <ele>54</ele>
        <time>2026-06-01T11:04:09Z</time>
      </trkpt>
      <trkpt lat="48.94356" lon="2.12912">
        <ele>54</ele>
        <time>2026-06-01T11:04:14Z</time>
      </trkpt>
      <trkpt lat="48.94339" lon="2.12821">
        <ele>57</ele>
        <time>2026-06-01T11:04:29Z</time>
      </trkpt>
      <trkpt lat="48.94338" lon="2.12808">
        <ele>57</ele>
        <time>2026-06-01T11:04:31Z</time>
      </trkpt>
      <trkpt lat="48.94343" lon="2.12786">
        <ele>59</ele>
        <time>2026-06-01T11:04:34Z</time>
      </trkpt>
      <trkpt lat="48.94342" lon="2.1278">
        <ele>59</ele>
        <time>2026-06-01T11:04:35Z</time>
      </trkpt>
      <trkpt lat="48.94339" lon="2.12779">
        <ele>59</ele>
        <time>2026-06-01T11:04:36Z</time>
      </trkpt>
    </trkseg>
  </trk>
</gpx>